IBE6464 SEGU-LEMD
Flight info
| Callsign | IBE6464 |
|---|---|
| Flight time | 10h 43m |
| Altitude | 28000 |
| Route | USOGI1 PAMIS UP533 QIT UP778 BOKAN/N0486F290 UP533 BNS UW50 PBL UP533 UBROT/N0505F310 UP533 ITEGO DCT PPR DCT BNJEE/M083F310 DCT 26N050W/M083F330 3430N04000W 4130N03000W 4330N02000W/M083F350 DCT MUDOS/N0477F350 DCT STG DCT DESAT/N0477F360 N733 ZMR |
| Aircraft | A346/H-SDE2E3FGHIJ3J4J5M1RWXY/LB1D1 |
Departure
| Time | 2026-05-05 12:42 |
|---|---|
| Airport | José Joaquín de Olmedo International Airport (SEGU) |
Arrival
| Time | 2026-05-05 23:26 |
|---|---|
| Airport | Adolfo Suárez Madrid–Barajas Airport (LEMD) |
| Time | Latitude | Longitude | Altitude | Speed | Heading |
|---|---|---|---|---|---|
| 2026-05-05 12:18 | -2.14847 | -79.88290 | 42 ft | 0 kts | 300° |
| 2026-05-05 12:30 | -2.14852 | -79.88281 | 42 ft | 2 kts | 297° |
| 2026-05-05 12:30 | -2.14859 | -79.88268 | 42 ft | 2 kts | 296° |
| 2026-05-05 12:30 | -2.14869 | -79.88256 | 42 ft | 2 kts | 339° |
| 2026-05-05 12:31 | -2.14884 | -79.88254 | 42 ft | 2 kts | 15° |
| 2026-05-05 12:31 | -2.14892 | -79.88258 | 42 ft | 1 kts | 31° |
| 2026-05-05 12:31 | -2.14894 | -79.88259 | 42 ft | 0 kts | 31° |
| 2026-05-05 12:34 | -2.14832 | -79.88223 | 42 ft | 20 kts | 30° |
| 2026-05-05 12:35 | -2.14793 | -79.88145 | 42 ft | 13 kts | 108° |
| 2026-05-05 12:35 | -2.14834 | -79.88055 | 42 ft | 8 kts | 81° |
| 2026-05-05 12:35 | -2.14789 | -79.88007 | 42 ft | 10 kts | 31° |
| 2026-05-05 12:35 | -2.14720 | -79.87967 | 42 ft | 12 kts | 30° |
| 2026-05-05 12:36 | -2.14665 | -79.87913 | 42 ft | 11 kts | 63° |
| 2026-05-05 12:36 | -2.14657 | -79.87894 | 42 ft | 0 kts | 66° |
| 2026-05-05 12:40 | -2.14654 | -79.87888 | 42 ft | 6 kts | 66° |
| 2026-05-05 12:40 | -2.14635 | -79.87772 | 42 ft | 16 kts | 111° |
| 2026-05-05 12:40 | -2.14690 | -79.87762 | 42 ft | 8 kts | 204° |
| 2026-05-05 12:40 | -2.14699 | -79.87768 | 42 ft | 0 kts | 210° |
| 2026-05-05 12:41 | -2.14791 | -79.87821 | 42 ft | 47 kts | 210° |
| 2026-05-05 12:41 | -2.15289 | -79.88107 | 42 ft | 114 kts | 210° |
| 2026-05-05 12:42 | -2.16150 | -79.88602 | 42 ft | 168 kts | 210° |
| 2026-05-05 12:42 | -2.17268 | -79.89234 | 286 ft | 189 kts | 210° |
| 2026-05-05 12:42 | -2.18410 | -79.89887 | 780 ft | 192 kts | 210° |
| 2026-05-05 12:42 | -2.19590 | -79.90569 | 1353 ft | 196 kts | 210° |
| 2026-05-05 12:43 | -2.20777 | -79.91248 | 1943 ft | 197 kts | 210° |
| 2026-05-05 12:43 | -2.21800 | -79.92088 | 2300 ft | 193 kts | 245° |
| 2026-05-05 12:43 | -2.21886 | -79.93392 | 2508 ft | 195 kts | 292° |
| 2026-05-05 12:43 | -2.20999 | -79.94382 | 2678 ft | 198 kts | 326° |
| 2026-05-05 12:44 | -2.19669 | -79.94840 | 2799 ft | 204 kts | 359° |
| 2026-05-05 12:44 | -2.18272 | -79.94582 | 2960 ft | 206 kts | 16° |
| 2026-05-05 12:44 | -2.16881 | -79.94161 | 3179 ft | 208 kts | 16° |
| 2026-05-05 12:44 | -2.15494 | -79.93736 | 3398 ft | 208 kts | 17° |
| 2026-05-05 12:45 | -2.14102 | -79.93339 | 3572 ft | 208 kts | 15° |
| 2026-05-05 12:45 | -2.12699 | -79.92956 | 3728 ft | 209 kts | 14° |
| 2026-05-05 12:45 | -2.11277 | -79.92576 | 3906 ft | 209 kts | 14° |
| 2026-05-05 12:45 | -2.09871 | -79.92197 | 4175 ft | 204 kts | 15° |
| 2026-05-05 12:46 | -2.08516 | -79.91833 | 4397 ft | 202 kts | 15° |
| 2026-05-05 12:46 | -2.07147 | -79.91457 | 4532 ft | 204 kts | 15° |
| 2026-05-05 12:46 | -2.05763 | -79.91075 | 4730 ft | 206 kts | 16° |
| 2026-05-05 12:46 | -2.04364 | -79.90682 | 4964 ft | 206 kts | 16° |
| 2026-05-05 12:47 | -2.02987 | -79.90305 | 5195 ft | 207 kts | 17° |
| 2026-05-05 12:47 | -2.01593 | -79.89927 | 5417 ft | 207 kts | 18° |
| 2026-05-05 12:47 | -2.00192 | -79.89526 | 5630 ft | 208 kts | 18° |
| 2026-05-05 12:47 | -1.98777 | -79.89119 | 5853 ft | 209 kts | 17° |
| 2026-05-05 12:48 | -1.97367 | -79.88722 | 6032 ft | 212 kts | 17° |
| 2026-05-05 12:48 | -1.95935 | -79.88303 | 6145 ft | 216 kts | 23° |
| 2026-05-05 12:48 | -1.94671 | -79.87484 | 6206 ft | 217 kts | 47° |
| 2026-05-05 12:48 | -1.93638 | -79.86340 | 6288 ft | 221 kts | 50° |
| 2026-05-05 12:49 | -1.92639 | -79.85159 | 6384 ft | 225 kts | 50° |
| 2026-05-05 12:49 | -1.91606 | -79.83939 | 6486 ft | 230 kts | 50° |
| 2026-05-05 12:49 | -1.90553 | -79.82707 | 6590 ft | 235 kts | 50° |
| 2026-05-05 12:49 | -1.89472 | -79.81448 | 6699 ft | 240 kts | 50° |
| 2026-05-05 12:50 | -1.88367 | -79.80166 | 6852 ft | 243 kts | 50° |
| 2026-05-05 12:50 | -1.87260 | -79.78886 | 7051 ft | 244 kts | 50° |
| 2026-05-05 12:50 | -1.86150 | -79.77602 | 7251 ft | 244 kts | 50° |
| 2026-05-05 12:50 | -1.85038 | -79.76318 | 7440 ft | 245 kts | 50° |
| 2026-05-05 12:51 | -1.83902 | -79.75005 | 7691 ft | 248 kts | 50° |
| 2026-05-05 12:51 | -1.82750 | -79.73676 | 7800 ft | 262 kts | 49° |
| 2026-05-05 12:51 | -1.81522 | -79.72261 | 8068 ft | 272 kts | 49° |
| 2026-05-05 12:51 | -1.80268 | -79.70815 | 8350 ft | 280 kts | 49° |
| 2026-05-05 12:52 | -1.78975 | -79.69325 | 8674 ft | 284 kts | 49° |
| 2026-05-05 12:52 | -1.77669 | -79.67819 | 9049 ft | 285 kts | 49° |
| 2026-05-05 12:52 | -1.76374 | -79.66326 | 9405 ft | 286 kts | 49° |
| 2026-05-05 12:52 | -1.75062 | -79.64812 | 9739 ft | 288 kts | 49° |
| 2026-05-05 12:53 | -1.73750 | -79.63300 | 10076 ft | 290 kts | 49° |
| 2026-05-05 12:53 | -1.72419 | -79.61767 | 10403 ft | 292 kts | 50° |
| 2026-05-05 12:53 | -1.71078 | -79.60212 | 10680 ft | 303 kts | 49° |
| 2026-05-05 12:53 | -1.69665 | -79.58575 | 10913 ft | 315 kts | 49° |
| 2026-05-05 12:54 | -1.66653 | -79.55131 | 11057 ft | 340 kts | 50° |
| 2026-05-05 12:54 | -1.65091 | -79.53317 | 11107 ft | 352 kts | 50° |
| 2026-05-05 12:54 | -1.63453 | -79.51427 | 11175 ft | 364 kts | 50° |
| 2026-05-05 12:55 | -1.61766 | -79.49475 | 11369 ft | 374 kts | 50° |
| 2026-05-05 12:55 | -1.59934 | -79.47581 | 11668 ft | 380 kts | 43° |
| 2026-05-05 12:55 | -1.57858 | -79.45901 | 12163 ft | 382 kts | 36° |
| 2026-05-05 12:55 | -1.55628 | -79.44484 | 12555 ft | 385 kts | 32° |
| 2026-05-05 12:56 | -1.53281 | -79.43111 | 13039 ft | 387 kts | 31° |
| 2026-05-05 12:56 | -1.50936 | -79.41756 | 13446 ft | 390 kts | 30° |
| 2026-05-05 12:56 | -1.48578 | -79.40405 | 13874 ft | 392 kts | 31° |
| 2026-05-05 12:56 | -1.46184 | -79.39026 | 14325 ft | 393 kts | 31° |
| 2026-05-05 12:57 | -1.43821 | -79.37653 | 14726 ft | 395 kts | 31° |
| 2026-05-05 12:57 | -1.41423 | -79.36259 | 15120 ft | 397 kts | 31° |
| 2026-05-05 12:57 | -1.39019 | -79.34862 | 15496 ft | 400 kts | 31° |
| 2026-05-05 12:57 | -1.36589 | -79.33450 | 15922 ft | 402 kts | 31° |
| 2026-05-05 12:58 | -1.34157 | -79.32037 | 16339 ft | 404 kts | 31° |
| 2026-05-05 12:58 | -1.31713 | -79.30617 | 16728 ft | 406 kts | 31° |
| 2026-05-05 12:58 | -1.29270 | -79.29202 | 17122 ft | 408 kts | 31° |
| 2026-05-05 12:58 | -1.26775 | -79.27753 | 17507 ft | 410 kts | 31° |
| 2026-05-05 12:59 | -1.24304 | -79.26318 | 17922 ft | 412 kts | 31° |
| 2026-05-05 12:59 | -1.21816 | -79.24874 | 18298 ft | 414 kts | 31° |
| 2026-05-05 12:59 | -1.19308 | -79.23418 | 18661 ft | 416 kts | 31° |
| 2026-05-05 13:00 | -1.14253 | -79.20483 | 19418 ft | 419 kts | 31° |
| 2026-05-05 13:00 | -1.11736 | -79.19021 | 19788 ft | 420 kts | 31° |
| 2026-05-05 13:01 | -1.04104 | -79.14592 | 20908 ft | 424 kts | 31° |
| 2026-05-05 13:01 | -1.01523 | -79.13094 | 21253 ft | 426 kts | 31° |
| 2026-05-05 13:01 | -0.98957 | -79.11604 | 21589 ft | 428 kts | 31° |
| 2026-05-05 13:01 | -0.96362 | -79.10097 | 21899 ft | 430 kts | 31° |
| 2026-05-05 13:02 | -0.93777 | -79.08598 | 22222 ft | 431 kts | 32° |
| 2026-05-05 13:02 | -0.91167 | -79.07082 | 22548 ft | 433 kts | 32° |
| 2026-05-05 13:02 | -0.88546 | -79.05559 | 22870 ft | 434 kts | 32° |
| 2026-05-05 13:02 | -0.85928 | -79.04037 | 23155 ft | 437 kts | 32° |
| 2026-05-05 13:03 | -0.83282 | -79.02503 | 23478 ft | 438 kts | 32° |
| 2026-05-05 13:03 | -0.80630 | -79.00948 | 23824 ft | 439 kts | 33° |
| 2026-05-05 13:03 | -0.78058 | -78.99316 | 24151 ft | 440 kts | 34° |
| 2026-05-05 13:03 | -0.75468 | -78.97642 | 24447 ft | 442 kts | 35° |
| 2026-05-05 13:04 | -0.72895 | -78.95971 | 24746 ft | 443 kts | 35° |
| 2026-05-05 13:04 | -0.70309 | -78.94292 | 25032 ft | 445 kts | 35° |
| 2026-05-05 13:04 | -0.67700 | -78.92597 | 25303 ft | 448 kts | 34° |
| 2026-05-05 13:04 | -0.65073 | -78.90891 | 25578 ft | 449 kts | 34° |
| 2026-05-05 13:05 | -0.62432 | -78.89176 | 25856 ft | 451 kts | 35° |
| 2026-05-05 13:05 | -0.59785 | -78.87460 | 26170 ft | 452 kts | 35° |
| 2026-05-05 13:05 | -0.57141 | -78.85742 | 26410 ft | 454 kts | 34° |
| 2026-05-05 13:05 | -0.54495 | -78.84024 | 26654 ft | 456 kts | 35° |
| 2026-05-05 13:06 | -0.51829 | -78.82296 | 26942 ft | 457 kts | 35° |
| 2026-05-05 13:06 | -0.49142 | -78.80552 | 27199 ft | 458 kts | 35° |
| 2026-05-05 13:06 | -0.46431 | -78.78792 | 27425 ft | 461 kts | 35° |
| 2026-05-05 13:06 | -0.43743 | -78.77048 | 27673 ft | 462 kts | 35° |
| 2026-05-05 13:07 | -0.41037 | -78.75294 | 27950 ft | 463 kts | 35° |
| 2026-05-05 13:07 | -0.38327 | -78.73533 | 28224 ft | 464 kts | 35° |
| 2026-05-05 13:07 | -0.35619 | -78.71777 | 28565 ft | 463 kts | 35° |
| 2026-05-05 13:07 | -0.32899 | -78.70011 | 28965 ft | 461 kts | 35° |
| 2026-05-05 13:08 | -0.30213 | -78.68267 | 29349 ft | 459 kts | 35° |
| 2026-05-05 13:08 | -0.27547 | -78.66535 | 29678 ft | 459 kts | 35° |
| 2026-05-05 13:08 | -0.24862 | -78.64792 | 29967 ft | 459 kts | 35° |
| 2026-05-05 13:08 | -0.22167 | -78.63042 | 30252 ft | 459 kts | 35° |
| 2026-05-05 13:09 | -0.19503 | -78.61312 | 30527 ft | 459 kts | 35° |
| 2026-05-05 13:09 | -0.16784 | -78.59548 | 30785 ft | 460 kts | 35° |
| 2026-05-05 13:09 | -0.14105 | -78.57808 | 31021 ft | 461 kts | 35° |
| 2026-05-05 13:09 | -0.11404 | -78.56052 | 31266 ft | 462 kts | 35° |
| 2026-05-05 13:10 | -0.08706 | -78.54302 | 31456 ft | 463 kts | 35° |
| 2026-05-05 13:10 | -0.05984 | -78.52535 | 31486 ft | 464 kts | 35° |
| 2026-05-05 13:10 | -0.00724 | -78.48834 | 31506 ft | 464 kts | 38° |
| 2026-05-05 13:11 | 0.04495 | -78.44954 | 31531 ft | 466 kts | 38° |
| 2026-05-05 13:11 | 0.07104 | -78.43010 | 31726 ft | 467 kts | 38° |
| 2026-05-05 13:11 | 0.09722 | -78.41058 | 32017 ft | 466 kts | 38° |
| 2026-05-05 13:12 | 0.12328 | -78.39118 | 32339 ft | 464 kts | 38° |
| 2026-05-05 13:12 | 0.14923 | -78.37187 | 32646 ft | 462 kts | 38° |
| 2026-05-05 13:12 | 0.17501 | -78.35268 | 32927 ft | 461 kts | 38° |
| 2026-05-05 13:12 | 0.20085 | -78.33342 | 33189 ft | 461 kts | 38° |
| 2026-05-05 13:13 | 0.22665 | -78.31419 | 33403 ft | 461 kts | 38° |
| 2026-05-05 13:13 | 0.25242 | -78.29499 | 33598 ft | 462 kts | 38° |
| 2026-05-05 13:13 | 0.27812 | -78.27586 | 33798 ft | 463 kts | 38° |
| 2026-05-05 13:13 | 0.30412 | -78.25649 | 34027 ft | 462 kts | 38° |
| 2026-05-05 13:14 | 0.32978 | -78.23739 | 34237 ft | 462 kts | 38° |
| 2026-05-05 13:14 | 0.35577 | -78.21802 | 34427 ft | 463 kts | 38° |
| 2026-05-05 13:14 | 0.38141 | -78.19893 | 34604 ft | 463 kts | 38° |
| 2026-05-05 13:14 | 0.40740 | -78.17956 | 34791 ft | 463 kts | 38° |
| 2026-05-05 13:15 | 0.43345 | -78.16015 | 34958 ft | 463 kts | 38° |
| 2026-05-05 13:15 | 0.45912 | -78.14102 | 35129 ft | 463 kts | 38° |
| 2026-05-05 13:15 | 0.48492 | -78.12180 | 35302 ft | 463 kts | 38° |
| 2026-05-05 13:15 | 0.51087 | -78.10249 | 35468 ft | 463 kts | 38° |
| 2026-05-05 13:16 | 0.56290 | -78.06379 | 35558 ft | 464 kts | 38° |
| 2026-05-05 13:16 | 0.61452 | -78.02537 | 35611 ft | 464 kts | 38° |
| 2026-05-05 13:17 | 0.66645 | -77.98669 | 35643 ft | 465 kts | 38° |
| 2026-05-05 13:17 | 0.71844 | -77.94795 | 35696 ft | 465 kts | 38° |
| 2026-05-05 13:18 | 0.77031 | -77.90931 | 35698 ft | 465 kts | 38° |
| 2026-05-05 13:18 | 0.82091 | -77.86883 | 35652 ft | 465 kts | 43° |
| 2026-05-05 13:19 | 0.86831 | -77.82465 | 35596 ft | 465 kts | 44° |
| 2026-05-05 13:19 | 0.91518 | -77.78033 | 35558 ft | 463 kts | 44° |
| 2026-05-05 13:20 | 0.96202 | -77.73603 | 35518 ft | 464 kts | 44° |
| 2026-05-05 13:20 | 1.00901 | -77.69161 | 35515 ft | 464 kts | 44° |
| 2026-05-05 13:21 | 1.05589 | -77.64729 | 35502 ft | 464 kts | 44° |
| 2026-05-05 13:21 | 1.10279 | -77.60295 | 35488 ft | 464 kts | 44° |
| 2026-05-05 13:22 | 1.14991 | -77.55840 | 35455 ft | 464 kts | 44° |
| 2026-05-05 13:22 | 1.19678 | -77.51408 | 35412 ft | 464 kts | 44° |
| 2026-05-05 13:23 | 1.24368 | -77.46975 | 35374 ft | 464 kts | 44° |
| 2026-05-05 13:23 | 1.29068 | -77.42531 | 35345 ft | 464 kts | 44° |
| 2026-05-05 13:24 | 1.33765 | -77.38089 | 35324 ft | 464 kts | 44° |
| 2026-05-05 13:24 | 1.38464 | -77.33646 | 35304 ft | 465 kts | 44° |
| 2026-05-05 13:25 | 1.43148 | -77.29216 | 35267 ft | 464 kts | 44° |
| 2026-05-05 13:25 | 1.47857 | -77.24762 | 35269 ft | 464 kts | 44° |
| 2026-05-05 13:26 | 1.52543 | -77.20329 | 35286 ft | 464 kts | 44° |
| 2026-05-05 13:26 | 1.57237 | -77.15890 | 35288 ft | 464 kts | 44° |
| 2026-05-05 13:27 | 1.61936 | -77.11446 | 35327 ft | 464 kts | 44° |
| 2026-05-05 13:27 | 1.66634 | -77.07002 | 35349 ft | 465 kts | 44° |
| 2026-05-05 13:28 | 1.71347 | -77.02542 | 35351 ft | 464 kts | 44° |
| 2026-05-05 13:28 | 1.76022 | -76.98119 | 35381 ft | 464 kts | 44° |
| 2026-05-05 13:29 | 1.80743 | -76.93652 | 35384 ft | 464 kts | 44° |
| 2026-05-05 13:29 | 1.85402 | -76.89243 | 35378 ft | 464 kts | 44° |
| 2026-05-05 13:30 | 1.90110 | -76.84789 | 35398 ft | 464 kts | 44° |
| 2026-05-05 13:30 | 1.94796 | -76.80353 | 35423 ft | 463 kts | 44° |
| 2026-05-05 13:31 | 1.99510 | -76.75890 | 35462 ft | 464 kts | 44° |
| 2026-05-05 13:31 | 2.04187 | -76.71463 | 35479 ft | 463 kts | 44° |
| 2026-05-05 13:32 | 2.08888 | -76.67013 | 35305 ft | 465 kts | 44° |
| 2026-05-05 13:32 | 2.11264 | -76.64765 | 35026 ft | 464 kts | 44° |
| 2026-05-05 13:32 | 2.13591 | -76.62563 | 34754 ft | 464 kts | 44° |
| 2026-05-05 13:33 | 2.15966 | -76.60314 | 34476 ft | 464 kts | 44° |
| 2026-05-05 13:33 | 2.18287 | -76.58118 | 34205 ft | 464 kts | 44° |
| 2026-05-05 13:33 | 2.20655 | -76.55875 | 33928 ft | 464 kts | 44° |
| 2026-05-05 13:33 | 2.22996 | -76.53659 | 33656 ft | 465 kts | 44° |
| 2026-05-05 13:34 | 2.25348 | -76.51434 | 33418 ft | 465 kts | 44° |
| 2026-05-05 13:34 | 2.27703 | -76.49204 | 33411 ft | 464 kts | 44° |
| 2026-05-05 13:34 | 2.32393 | -76.44760 | 33423 ft | 466 kts | 44° |
| 2026-05-05 13:35 | 2.37091 | -76.40313 | 33448 ft | 465 kts | 44° |
| 2026-05-05 13:35 | 2.41810 | -76.35844 | 33457 ft | 465 kts | 44° |
| 2026-05-05 13:36 | 2.46501 | -76.31399 | 33515 ft | 463 kts | 44° |
| 2026-05-05 13:36 | 2.51184 | -76.26962 | 33553 ft | 467 kts | 44° |
| 2026-05-05 13:37 | 2.55939 | -76.22458 | 33615 ft | 468 kts | 44° |
| 2026-05-05 13:37 | 2.60660 | -76.17982 | 33597 ft | 468 kts | 44° |
| 2026-05-05 13:38 | 2.65383 | -76.13508 | 33595 ft | 468 kts | 45° |
| 2026-05-05 13:38 | 2.70127 | -76.09011 | 33593 ft | 467 kts | 45° |
| 2026-05-05 13:39 | 2.74834 | -76.04549 | 33602 ft | 468 kts | 45° |
| 2026-05-05 13:39 | 2.79568 | -76.00059 | 33626 ft | 470 kts | 45° |
| 2026-05-05 13:40 | 2.84347 | -75.95528 | 33655 ft | 469 kts | 45° |
| 2026-05-05 13:40 | 2.89058 | -75.91060 | 33669 ft | 469 kts | 45° |
| 2026-05-05 13:41 | 2.93810 | -75.86553 | 33706 ft | 470 kts | 45° |
| 2026-05-05 13:41 | 2.98562 | -75.82044 | 33703 ft | 471 kts | 45° |
| 2026-05-05 13:42 | 3.03341 | -75.77509 | 33686 ft | 471 kts | 45° |
| 2026-05-05 13:42 | 3.08091 | -75.73002 | 33656 ft | 472 kts | 44° |
| 2026-05-05 13:43 | 3.12863 | -75.68475 | 33601 ft | 472 kts | 44° |
| 2026-05-05 13:43 | 3.17651 | -75.63930 | 33562 ft | 472 kts | 44° |
| 2026-05-05 13:44 | 3.22406 | -75.59418 | 33494 ft | 471 kts | 45° |
| 2026-05-05 13:44 | 3.27158 | -75.54906 | 33424 ft | 474 kts | 44° |
| 2026-05-05 13:45 | 3.31881 | -75.50424 | 33365 ft | 473 kts | 45° |
| 2026-05-05 13:45 | 3.36670 | -75.45875 | 33316 ft | 473 kts | 44° |
| 2026-05-05 13:46 | 3.41435 | -75.41350 | 33282 ft | 474 kts | 44° |
| 2026-05-05 13:46 | 3.46251 | -75.36776 | 33277 ft | 474 kts | 44° |
| 2026-05-05 13:47 | 3.51031 | -75.32238 | 33269 ft | 475 kts | 44° |
| 2026-05-05 13:47 | 3.55838 | -75.27671 | 33253 ft | 476 kts | 44° |
| 2026-05-05 13:48 | 3.60653 | -75.23097 | 33228 ft | 476 kts | 45° |
| 2026-05-05 13:48 | 3.65467 | -75.18520 | 33197 ft | 476 kts | 44° |
| 2026-05-05 13:49 | 3.70256 | -75.13968 | 33155 ft | 476 kts | 45° |
| 2026-05-05 13:49 | 3.75077 | -75.09383 | 33102 ft | 476 kts | 44° |
| 2026-05-05 13:50 | 3.79878 | -75.04820 | 33075 ft | 476 kts | 44° |
| 2026-05-05 13:50 | 3.84710 | -75.00224 | 33055 ft | 478 kts | 44° |
| 2026-05-05 13:51 | 3.89543 | -74.95628 | 33062 ft | 478 kts | 44° |
| 2026-05-05 13:51 | 3.94357 | -74.91049 | 33056 ft | 478 kts | 44° |
| 2026-05-05 13:52 | 3.99182 | -74.86458 | 33049 ft | 478 kts | 44° |
| 2026-05-05 13:52 | 4.03992 | -74.81879 | 33052 ft | 478 kts | 44° |
| 2026-05-05 13:53 | 4.08818 | -74.77284 | 33059 ft | 478 kts | 44° |
| 2026-05-05 13:53 | 4.13653 | -74.72682 | 33059 ft | 478 kts | 44° |
| 2026-05-05 13:54 | 4.18496 | -74.68072 | 33065 ft | 478 kts | 44° |
| 2026-05-05 13:54 | 4.23301 | -74.63496 | 33076 ft | 478 kts | 44° |
| 2026-05-05 13:55 | 4.28145 | -74.58881 | 33082 ft | 478 kts | 44° |
| 2026-05-05 13:55 | 4.32972 | -74.54282 | 33118 ft | 478 kts | 44° |
| 2026-05-05 13:56 | 4.37767 | -74.49712 | 33167 ft | 477 kts | 44° |
| 2026-05-05 13:56 | 4.42595 | -74.45110 | 33247 ft | 478 kts | 44° |
| 2026-05-05 13:57 | 4.47396 | -74.40533 | 33325 ft | 477 kts | 44° |
| 2026-05-05 13:57 | 4.52245 | -74.35908 | 33380 ft | 477 kts | 44° |
| 2026-05-05 13:58 | 4.57054 | -74.31319 | 33416 ft | 476 kts | 44° |
| 2026-05-05 13:58 | 4.61852 | -74.26739 | 33449 ft | 476 kts | 44° |
| 2026-05-05 13:59 | 4.69056 | -74.19862 | 33456 ft | 476 kts | 44° |
| 2026-05-05 14:00 | 4.75470 | -74.13756 | 33465 ft | 476 kts | 44° |
| 2026-05-05 14:00 | 4.80721 | -74.08753 | 33474 ft | 476 kts | 44° |
| 2026-05-05 14:01 | 4.85546 | -74.04149 | 33478 ft | 476 kts | 44° |
| 2026-05-05 14:01 | 4.90328 | -73.99581 | 33478 ft | 476 kts | 44° |
| 2026-05-05 14:02 | 4.95135 | -73.94992 | 33475 ft | 476 kts | 44° |
| 2026-05-05 14:02 | 4.99943 | -73.90400 | 33495 ft | 476 kts | 44° |
| 2026-05-05 14:03 | 5.04740 | -73.85819 | 33525 ft | 476 kts | 44° |
| 2026-05-05 14:03 | 5.09558 | -73.81216 | 33548 ft | 475 kts | 44° |
| 2026-05-05 14:04 | 5.14349 | -73.76633 | 33551 ft | 475 kts | 44° |
| 2026-05-05 14:04 | 5.19136 | -73.72053 | 33545 ft | 475 kts | 44° |
| 2026-05-05 14:05 | 5.23925 | -73.67474 | 33544 ft | 476 kts | 44° |
| 2026-05-05 14:05 | 5.28712 | -73.62897 | 33546 ft | 476 kts | 44° |
| 2026-05-05 14:06 | 5.33500 | -73.58317 | 33537 ft | 476 kts | 44° |
| 2026-05-05 14:06 | 5.38319 | -73.53706 | 33530 ft | 476 kts | 44° |
| 2026-05-05 14:07 | 5.43111 | -73.49120 | 33526 ft | 475 kts | 44° |
| 2026-05-05 14:07 | 5.47889 | -73.44545 | 33522 ft | 475 kts | 44° |
| 2026-05-05 14:08 | 5.52684 | -73.39953 | 33529 ft | 476 kts | 44° |
| 2026-05-05 14:08 | 5.57500 | -73.35339 | 33527 ft | 476 kts | 44° |
| 2026-05-05 14:09 | 5.62275 | -73.30766 | 33529 ft | 476 kts | 44° |
| 2026-05-05 14:09 | 5.67077 | -73.26166 | 33529 ft | 476 kts | 44° |
| 2026-05-05 14:10 | 5.71873 | -73.21568 | 33538 ft | 476 kts | 44° |
| 2026-05-05 14:10 | 5.76667 | -73.16973 | 33529 ft | 475 kts | 44° |
| 2026-05-05 14:11 | 5.81447 | -73.12389 | 33550 ft | 475 kts | 44° |
| 2026-05-05 14:11 | 5.86227 | -73.07803 | 33567 ft | 474 kts | 44° |
| 2026-05-05 14:12 | 5.91012 | -73.03212 | 33590 ft | 474 kts | 44° |
| 2026-05-05 14:12 | 5.95790 | -72.98628 | 33637 ft | 474 kts | 44° |
| 2026-05-05 14:13 | 6.00599 | -72.94012 | 33649 ft | 474 kts | 44° |
| 2026-05-05 14:13 | 6.05366 | -72.89436 | 33622 ft | 475 kts | 44° |
| 2026-05-05 14:14 | 6.10145 | -72.84847 | 33581 ft | 474 kts | 44° |
| 2026-05-05 14:14 | 6.14943 | -72.80237 | 33576 ft | 474 kts | 44° |
| 2026-05-05 14:15 | 6.19721 | -72.75645 | 33587 ft | 475 kts | 44° |
| 2026-05-05 14:15 | 6.24487 | -72.71065 | 33625 ft | 474 kts | 44° |
| 2026-05-05 14:16 | 6.29278 | -72.66458 | 33625 ft | 475 kts | 44° |
| 2026-05-05 14:16 | 6.34059 | -72.61861 | 33580 ft | 475 kts | 44° |
| 2026-05-05 14:17 | 6.38821 | -72.57280 | 33559 ft | 475 kts | 44° |
| 2026-05-05 14:17 | 6.43611 | -72.52670 | 33504 ft | 475 kts | 43° |
| 2026-05-05 14:18 | 6.48397 | -72.48064 | 33487 ft | 475 kts | 43° |
| 2026-05-05 14:18 | 6.53165 | -72.43473 | 33476 ft | 475 kts | 43° |
| 2026-05-05 14:19 | 6.57976 | -72.38841 | 33496 ft | 476 kts | 43° |
| 2026-05-05 14:19 | 6.62747 | -72.34244 | 33503 ft | 477 kts | 44° |
| 2026-05-05 14:20 | 6.67528 | -72.29637 | 33488 ft | 476 kts | 44° |
| 2026-05-05 14:20 | 6.72322 | -72.25016 | 33441 ft | 477 kts | 44° |
| 2026-05-05 14:21 | 6.77132 | -72.20377 | 33372 ft | 477 kts | 43° |
| 2026-05-05 14:21 | 6.81934 | -72.15743 | 33284 ft | 477 kts | 43° |
| 2026-05-05 14:22 | 6.86727 | -72.11118 | 33233 ft | 478 kts | 43° |
| 2026-05-05 14:22 | 6.91524 | -72.06486 | 33172 ft | 479 kts | 44° |
| 2026-05-05 14:23 | 6.96336 | -72.01835 | 33112 ft | 479 kts | 44° |
| 2026-05-05 14:23 | 7.01165 | -71.97154 | 33065 ft | 480 kts | 45° |
| 2026-05-05 14:24 | 7.05741 | -71.92291 | 33061 ft | 480 kts | 47° |
| 2026-05-05 14:24 | 7.10308 | -71.87334 | 33062 ft | 480 kts | 47° |
| 2026-05-05 14:25 | 7.14860 | -71.82388 | 33055 ft | 480 kts | 47° |
| 2026-05-05 14:25 | 7.19379 | -71.77483 | 33053 ft | 479 kts | 47° |
| 2026-05-05 14:26 | 7.23940 | -71.72526 | 33049 ft | 480 kts | 47° |
| 2026-05-05 14:26 | 7.28475 | -71.67596 | 33049 ft | 480 kts | 47° |
| 2026-05-05 14:27 | 7.33012 | -71.62663 | 33058 ft | 480 kts | 47° |
| 2026-05-05 14:27 | 7.37543 | -71.57735 | 33058 ft | 479 kts | 47° |
| 2026-05-05 14:28 | 7.42069 | -71.52813 | 33057 ft | 479 kts | 47° |
| 2026-05-05 14:28 | 7.46598 | -71.47884 | 33062 ft | 479 kts | 47° |
| 2026-05-05 14:29 | 7.51149 | -71.42931 | 33056 ft | 480 kts | 47° |
| 2026-05-05 14:29 | 7.55671 | -71.38008 | 33056 ft | 481 kts | 47° |
| 2026-05-05 14:30 | 7.60219 | -71.33054 | 33063 ft | 480 kts | 47° |
| 2026-05-05 14:30 | 7.64753 | -71.28115 | 33064 ft | 480 kts | 47° |
| 2026-05-05 14:31 | 7.69281 | -71.23180 | 33066 ft | 479 kts | 47° |
| 2026-05-05 14:31 | 7.73794 | -71.18259 | 33061 ft | 479 kts | 47° |
| 2026-05-05 14:32 | 7.78334 | -71.13307 | 33063 ft | 479 kts | 47° |
| 2026-05-05 14:32 | 7.82855 | -71.08374 | 33064 ft | 479 kts | 47° |
| 2026-05-05 14:33 | 7.87385 | -71.03429 | 33063 ft | 480 kts | 47° |
| 2026-05-05 14:33 | 7.91931 | -70.98464 | 33056 ft | 481 kts | 47° |
| 2026-05-05 14:34 | 7.96480 | -70.93497 | 33054 ft | 480 kts | 47° |
| 2026-05-05 14:34 | 8.01010 | -70.88548 | 33053 ft | 479 kts | 47° |
| 2026-05-05 14:35 | 8.05501 | -70.83637 | 33064 ft | 479 kts | 47° |
| 2026-05-05 14:35 | 8.10040 | -70.78672 | 33077 ft | 479 kts | 47° |
| 2026-05-05 14:36 | 8.14554 | -70.73734 | 33077 ft | 480 kts | 47° |
| 2026-05-05 14:36 | 8.19076 | -70.68785 | 33065 ft | 480 kts | 47° |
| 2026-05-05 14:37 | 8.23593 | -70.63841 | 33071 ft | 479 kts | 47° |
| 2026-05-05 14:37 | 8.28120 | -70.58885 | 33069 ft | 478 kts | 47° |
| 2026-05-05 14:38 | 8.32620 | -70.53954 | 33061 ft | 478 kts | 47° |
| 2026-05-05 14:38 | 8.37141 | -70.48999 | 33068 ft | 479 kts | 47° |
| 2026-05-05 14:39 | 8.41670 | -70.44033 | 33063 ft | 479 kts | 47° |
| 2026-05-05 14:39 | 8.46161 | -70.39107 | 33062 ft | 479 kts | 47° |
| 2026-05-05 14:40 | 8.50692 | -70.34135 | 33061 ft | 478 kts | 47° |
| 2026-05-05 14:40 | 8.55189 | -70.29196 | 33068 ft | 477 kts | 47° |
| 2026-05-05 14:41 | 8.59702 | -70.24235 | 33061 ft | 477 kts | 47° |
| 2026-05-05 14:41 | 8.64156 | -70.19288 | 33053 ft | 478 kts | 48° |
| 2026-05-05 14:42 | 8.68573 | -70.14251 | 33049 ft | 478 kts | 48° |
| 2026-05-05 14:42 | 8.72969 | -70.09230 | 33043 ft | 478 kts | 48° |
| 2026-05-05 14:43 | 8.77392 | -70.04182 | 33050 ft | 477 kts | 48° |
| 2026-05-05 14:43 | 8.81811 | -69.99138 | 33039 ft | 476 kts | 47° |
| 2026-05-05 14:44 | 8.86214 | -69.94113 | 33036 ft | 476 kts | 48° |
| 2026-05-05 14:44 | 8.90618 | -69.89085 | 33036 ft | 476 kts | 48° |
| 2026-05-05 14:45 | 8.95005 | -69.84071 | 33034 ft | 476 kts | 47° |
| 2026-05-05 14:45 | 8.99402 | -69.79045 | 33035 ft | 476 kts | 47° |
| 2026-05-05 14:46 | 9.03807 | -69.74013 | 33026 ft | 477 kts | 47° |
| 2026-05-05 14:46 | 9.08214 | -69.68973 | 33020 ft | 477 kts | 47° |
| 2026-05-05 14:47 | 9.12609 | -69.63947 | 33017 ft | 478 kts | 47° |
| 2026-05-05 14:47 | 9.17013 | -69.58905 | 33016 ft | 478 kts | 47° |
| 2026-05-05 14:48 | 9.21440 | -69.53834 | 33013 ft | 478 kts | 47° |
| 2026-05-05 14:48 | 9.25831 | -69.48804 | 33011 ft | 478 kts | 47° |
| 2026-05-05 14:49 | 9.30230 | -69.43763 | 33026 ft | 478 kts | 47° |
| 2026-05-05 14:49 | 9.34626 | -69.38724 | 33040 ft | 478 kts | 47° |
| 2026-05-05 14:50 | 9.39063 | -69.33633 | 33043 ft | 478 kts | 48° |
| 2026-05-05 14:50 | 9.43459 | -69.28587 | 33035 ft | 478 kts | 48° |
| 2026-05-05 14:51 | 9.47835 | -69.23560 | 33019 ft | 478 kts | 48° |
| 2026-05-05 14:51 | 9.52245 | -69.18494 | 33014 ft | 477 kts | 48° |
| 2026-05-05 14:52 | 9.56627 | -69.13456 | 33018 ft | 478 kts | 48° |
| 2026-05-05 14:52 | 9.61041 | -69.08377 | 33026 ft | 478 kts | 48° |
| 2026-05-05 14:53 | 9.65419 | -69.03343 | 33028 ft | 478 kts | 48° |
| 2026-05-05 14:53 | 9.69822 | -68.98296 | 33030 ft | 477 kts | 47° |
| 2026-05-05 14:54 | 9.74211 | -68.93256 | 33038 ft | 477 kts | 47° |
| 2026-05-05 14:54 | 9.78620 | -68.88190 | 33050 ft | 477 kts | 47° |
| 2026-05-05 14:55 | 9.82945 | -68.83214 | 33065 ft | 478 kts | 47° |
| 2026-05-05 14:55 | 9.87342 | -68.78150 | 33078 ft | 478 kts | 47° |
| 2026-05-05 14:56 | 9.91729 | -68.73096 | 33089 ft | 478 kts | 48° |
| 2026-05-05 14:56 | 9.96124 | -68.68029 | 33102 ft | 477 kts | 47° |
| 2026-05-05 14:57 | 10.00512 | -68.62967 | 33115 ft | 477 kts | 47° |
| 2026-05-05 14:57 | 10.04896 | -68.57921 | 33116 ft | 477 kts | 47° |
| 2026-05-05 14:58 | 10.09298 | -68.52872 | 33124 ft | 478 kts | 47° |
| 2026-05-05 14:58 | 10.13684 | -68.47833 | 33137 ft | 479 kts | 47° |
| 2026-05-05 14:59 | 10.18114 | -68.42739 | 33145 ft | 479 kts | 47° |
| 2026-05-05 14:59 | 10.22523 | -68.37665 | 33155 ft | 479 kts | 47° |
| 2026-05-05 15:00 | 10.26197 | -68.33433 | 33156 ft | 479 kts | 47° |
| 2026-05-05 15:00 | 10.31346 | -68.27499 | 33144 ft | 479 kts | 47° |
| 2026-05-05 15:01 | 10.35739 | -68.22433 | 33118 ft | 478 kts | 47° |
| 2026-05-05 15:01 | 10.40135 | -68.17361 | 33084 ft | 478 kts | 47° |
| 2026-05-05 15:02 | 10.44541 | -68.12272 | 33057 ft | 479 kts | 47° |
| 2026-05-05 15:02 | 10.48951 | -68.07181 | 33027 ft | 480 kts | 47° |
| 2026-05-05 15:03 | 10.53374 | -68.02115 | 33011 ft | 480 kts | 47° |
| 2026-05-05 15:03 | 10.57809 | -67.97033 | 33015 ft | 481 kts | 47° |
| 2026-05-05 15:04 | 10.62259 | -67.91922 | 33017 ft | 481 kts | 47° |
| 2026-05-05 15:04 | 10.66703 | -67.86800 | 33016 ft | 481 kts | 48° |
| 2026-05-05 15:05 | 10.73207 | -67.79080 | 33021 ft | 481 kts | 48° |
| 2026-05-05 15:06 | 10.77566 | -67.73895 | 33015 ft | 481 kts | 48° |
| 2026-05-05 15:06 | 10.81922 | -67.68716 | 33016 ft | 481 kts | 48° |
| 2026-05-05 15:07 | 10.86270 | -67.63548 | 33015 ft | 481 kts | 48° |
| 2026-05-05 15:07 | 10.90632 | -67.58367 | 33006 ft | 480 kts | 48° |
| 2026-05-05 15:08 | 10.94966 | -67.53210 | 32995 ft | 480 kts | 48° |
| 2026-05-05 15:08 | 10.99314 | -67.48031 | 32995 ft | 479 kts | 49° |
| 2026-05-05 15:09 | 11.03528 | -67.42803 | 32995 ft | 479 kts | 50° |
| 2026-05-05 15:09 | 11.07736 | -67.37509 | 33000 ft | 480 kts | 50° |
| 2026-05-05 15:10 | 11.11932 | -67.32243 | 33000 ft | 479 kts | 50° |
| 2026-05-05 15:10 | 11.16140 | -67.26967 | 32998 ft | 480 kts | 50° |
| 2026-05-05 15:11 | 11.20345 | -67.21693 | 32999 ft | 480 kts | 50° |
| 2026-05-05 15:11 | 11.24534 | -67.16441 | 33000 ft | 480 kts | 50° |
| 2026-05-05 15:12 | 11.28756 | -67.11144 | 33002 ft | 480 kts | 50° |
| 2026-05-05 15:12 | 11.32953 | -67.05868 | 33002 ft | 481 kts | 50° |
| 2026-05-05 15:13 | 11.37170 | -67.00565 | 33003 ft | 481 kts | 50° |
| 2026-05-05 15:13 | 11.41381 | -66.95259 | 33003 ft | 480 kts | 50° |
| 2026-05-05 15:14 | 11.45561 | -66.90000 | 33005 ft | 480 kts | 50° |
| 2026-05-05 15:14 | 11.49784 | -66.84692 | 33010 ft | 480 kts | 50° |
| 2026-05-05 15:15 | 11.53960 | -66.79436 | 33012 ft | 479 kts | 50° |
| 2026-05-05 15:15 | 11.58165 | -66.74141 | 33015 ft | 480 kts | 50° |
| 2026-05-05 15:16 | 11.62359 | -66.68854 | 33017 ft | 480 kts | 50° |
| 2026-05-05 15:16 | 11.66565 | -66.63540 | 33019 ft | 480 kts | 50° |
| 2026-05-05 15:17 | 11.70754 | -66.58248 | 33019 ft | 480 kts | 49° |
| 2026-05-05 15:17 | 11.74957 | -66.52955 | 33023 ft | 479 kts | 49° |
| 2026-05-05 15:18 | 11.79146 | -66.47673 | 33023 ft | 479 kts | 49° |
| 2026-05-05 15:18 | 11.83347 | -66.42369 | 33027 ft | 480 kts | 49° |
| 2026-05-05 15:19 | 11.87529 | -66.37082 | 33029 ft | 480 kts | 49° |
| 2026-05-05 15:19 | 11.91730 | -66.31767 | 33029 ft | 481 kts | 49° |
| 2026-05-05 15:20 | 11.95930 | -66.26453 | 33033 ft | 480 kts | 49° |
| 2026-05-05 15:20 | 12.00133 | -66.21131 | 33037 ft | 479 kts | 50° |
| 2026-05-05 15:21 | 12.04312 | -66.15836 | 33039 ft | 479 kts | 50° |
| 2026-05-05 15:21 | 12.08480 | -66.10547 | 33039 ft | 479 kts | 50° |
| 2026-05-05 15:22 | 12.12663 | -66.05241 | 33040 ft | 479 kts | 50° |
| 2026-05-05 15:22 | 12.16845 | -65.99931 | 33041 ft | 480 kts | 49° |
| 2026-05-05 15:23 | 12.21022 | -65.94627 | 33043 ft | 480 kts | 49° |
| 2026-05-05 15:23 | 12.25197 | -65.89323 | 33046 ft | 479 kts | 49° |
| 2026-05-05 15:24 | 12.29407 | -65.83974 | 33046 ft | 479 kts | 49° |
| 2026-05-05 15:24 | 12.33571 | -65.78680 | 33191 ft | 482 kts | 50° |
| 2026-05-05 15:24 | 12.35681 | -65.75994 | 33569 ft | 480 kts | 50° |
| 2026-05-05 15:25 | 12.37769 | -65.73333 | 33979 ft | 477 kts | 49° |
| 2026-05-05 15:25 | 12.39843 | -65.70689 | 34319 ft | 475 kts | 49° |
| 2026-05-05 15:25 | 12.41914 | -65.68050 | 34606 ft | 475 kts | 49° |
| 2026-05-05 15:25 | 12.43966 | -65.65435 | 34863 ft | 474 kts | 49° |
| 2026-05-05 15:26 | 12.46041 | -65.62791 | 35038 ft | 475 kts | 49° |
| 2026-05-05 15:26 | 12.50171 | -65.57524 | 35252 ft | 476 kts | 49° |
| 2026-05-05 15:26 | 12.52253 | -65.54868 | 35545 ft | 475 kts | 50° |
| 2026-05-05 15:27 | 12.54313 | -65.52237 | 35816 ft | 473 kts | 49° |
| 2026-05-05 15:27 | 12.56376 | -65.49606 | 36042 ft | 472 kts | 49° |
| 2026-05-05 15:27 | 12.58427 | -65.46986 | 36238 ft | 472 kts | 50° |
| 2026-05-05 15:27 | 12.60476 | -65.44371 | 36406 ft | 472 kts | 50° |
| 2026-05-05 15:28 | 12.62503 | -65.41781 | 36561 ft | 472 kts | 50° |
| 2026-05-05 15:28 | 12.64568 | -65.39142 | 36722 ft | 471 kts | 49° |
| 2026-05-05 15:28 | 12.66617 | -65.36523 | 36876 ft | 471 kts | 49° |
| 2026-05-05 15:28 | 12.68664 | -65.33905 | 37019 ft | 470 kts | 50° |
| 2026-05-05 15:29 | 12.70694 | -65.31310 | 37032 ft | 472 kts | 50° |
| 2026-05-05 15:29 | 12.74799 | -65.26058 | 37035 ft | 473 kts | 50° |
| 2026-05-05 15:30 | 12.78923 | -65.20778 | 37037 ft | 473 kts | 50° |
| 2026-05-05 15:30 | 12.83012 | -65.15541 | 37036 ft | 473 kts | 50° |
| 2026-05-05 15:31 | 12.87119 | -65.10278 | 37037 ft | 472 kts | 50° |
| 2026-05-05 15:31 | 12.91208 | -65.05034 | 37038 ft | 471 kts | 50° |
| 2026-05-05 15:32 | 12.95307 | -64.99774 | 37038 ft | 470 kts | 50° |
| 2026-05-05 15:32 | 12.99356 | -64.94574 | 37037 ft | 470 kts | 50° |
| 2026-05-05 15:33 | 13.03457 | -64.89304 | 37038 ft | 471 kts | 50° |
| 2026-05-05 15:33 | 13.07548 | -64.84045 | 37041 ft | 472 kts | 50° |
| 2026-05-05 15:34 | 13.11632 | -64.78789 | 37043 ft | 472 kts | 50° |
| 2026-05-05 15:34 | 13.15718 | -64.73525 | 37044 ft | 472 kts | 50° |
| 2026-05-05 15:35 | 13.19803 | -64.68264 | 37043 ft | 473 kts | 50° |
| 2026-05-05 15:35 | 13.23910 | -64.62978 | 37045 ft | 472 kts | 50° |
| 2026-05-05 15:36 | 13.27983 | -64.57725 | 37044 ft | 472 kts | 50° |
| 2026-05-05 15:36 | 13.32076 | -64.52442 | 37046 ft | 473 kts | 50° |
| 2026-05-05 15:37 | 13.36141 | -64.47189 | 37046 ft | 473 kts | 50° |
| 2026-05-05 15:37 | 13.40254 | -64.41869 | 37047 ft | 473 kts | 50° |
| 2026-05-05 15:38 | 13.44334 | -64.36598 | 37049 ft | 473 kts | 50° |
| 2026-05-05 15:38 | 13.48429 | -64.31307 | 37049 ft | 473 kts | 50° |
| 2026-05-05 15:39 | 13.52533 | -64.25996 | 37049 ft | 474 kts | 50° |
| 2026-05-05 15:39 | 13.56601 | -64.20722 | 37048 ft | 473 kts | 50° |
| 2026-05-05 15:40 | 13.60713 | -64.15429 | 37049 ft | 473 kts | 48° |
| 2026-05-05 15:40 | 13.65190 | -64.10474 | 37051 ft | 472 kts | 42° |
| 2026-05-05 15:41 | 13.69966 | -64.05847 | 37051 ft | 471 kts | 41° |
| 2026-05-05 15:41 | 13.74744 | -64.01247 | 37052 ft | 472 kts | 41° |
| 2026-05-05 15:42 | 13.79548 | -63.96614 | 37054 ft | 472 kts | 41° |
| 2026-05-05 15:42 | 13.84306 | -63.92021 | 37055 ft | 472 kts | 41° |
| 2026-05-05 15:43 | 13.89119 | -63.87367 | 37056 ft | 472 kts | 41° |
| 2026-05-05 15:43 | 13.93896 | -63.82743 | 37059 ft | 472 kts | 41° |
| 2026-05-05 15:44 | 13.98690 | -63.78102 | 37059 ft | 473 kts | 41° |
| 2026-05-05 15:44 | 14.03455 | -63.73485 | 37059 ft | 472 kts | 42° |
| 2026-05-05 15:45 | 14.08247 | -63.68839 | 37059 ft | 473 kts | 41° |
| 2026-05-05 15:45 | 14.13041 | -63.64187 | 37060 ft | 473 kts | 41° |
| 2026-05-05 15:46 | 14.17841 | -63.59529 | 37060 ft | 473 kts | 41° |
| 2026-05-05 15:46 | 14.22620 | -63.54887 | 37060 ft | 473 kts | 41° |
| 2026-05-05 15:47 | 14.27386 | -63.50255 | 37060 ft | 473 kts | 42° |
| 2026-05-05 15:47 | 14.32183 | -63.45590 | 37060 ft | 473 kts | 42° |
| 2026-05-05 15:48 | 14.36975 | -63.40926 | 37060 ft | 474 kts | 42° |
| 2026-05-05 15:48 | 14.41791 | -63.36237 | 37060 ft | 474 kts | 42° |
| 2026-05-05 15:49 | 14.46568 | -63.31582 | 37061 ft | 474 kts | 42° |
| 2026-05-05 15:49 | 14.51393 | -63.26877 | 37065 ft | 474 kts | 42° |
| 2026-05-05 15:50 | 14.56156 | -63.22232 | 37069 ft | 474 kts | 42° |
| 2026-05-05 15:50 | 14.60972 | -63.17532 | 37070 ft | 475 kts | 42° |
| 2026-05-05 15:51 | 14.65745 | -63.12869 | 37071 ft | 475 kts | 42° |
| 2026-05-05 15:51 | 14.70540 | -63.08182 | 37073 ft | 474 kts | 42° |
| 2026-05-05 15:52 | 14.75354 | -63.03475 | 37074 ft | 474 kts | 42° |
| 2026-05-05 15:52 | 14.80144 | -62.98787 | 37076 ft | 474 kts | 42° |
| 2026-05-05 15:53 | 14.84910 | -62.94120 | 37078 ft | 474 kts | 42° |
| 2026-05-05 15:53 | 14.89713 | -62.89414 | 37079 ft | 475 kts | 42° |
| 2026-05-05 15:54 | 14.94504 | -62.84718 | 37079 ft | 476 kts | 42° |
| 2026-05-05 15:54 | 14.99299 | -62.80013 | 37082 ft | 475 kts | 42° |
| 2026-05-05 15:55 | 15.04087 | -62.75311 | 37086 ft | 474 kts | 42° |
| 2026-05-05 15:55 | 15.08877 | -62.70605 | 37082 ft | 474 kts | 42° |
| 2026-05-05 15:56 | 15.13661 | -62.65902 | 37082 ft | 474 kts | 42° |
| 2026-05-05 15:56 | 15.18436 | -62.61205 | 37082 ft | 474 kts | 42° |
| 2026-05-05 15:57 | 15.23205 | -62.56511 | 37082 ft | 474 kts | 42° |
| 2026-05-05 15:57 | 15.27992 | -62.51795 | 37081 ft | 474 kts | 42° |
| 2026-05-05 15:58 | 15.32780 | -62.47077 | 37082 ft | 474 kts | 42° |
| 2026-05-05 15:58 | 15.37541 | -62.42381 | 37083 ft | 474 kts | 42° |
| 2026-05-05 15:59 | 15.42329 | -62.37656 | 37082 ft | 474 kts | 42° |
| 2026-05-05 15:59 | 15.47096 | -62.32949 | 37080 ft | 474 kts | 43° |
| 2026-05-05 16:00 | 15.51852 | -62.28246 | 37080 ft | 474 kts | 43° |
| 2026-05-05 16:00 | 15.56630 | -62.23521 | 37080 ft | 474 kts | 43° |
| 2026-05-05 16:01 | 15.61393 | -62.18807 | 37081 ft | 474 kts | 43° |
| 2026-05-05 16:01 | 15.66177 | -62.14069 | 37080 ft | 475 kts | 43° |
| 2026-05-05 16:02 | 15.70980 | -62.09312 | 37080 ft | 476 kts | 43° |
| 2026-05-05 16:02 | 15.75774 | -62.04558 | 37079 ft | 477 kts | 43° |
| 2026-05-05 16:03 | 15.80544 | -61.99822 | 37079 ft | 476 kts | 43° |
| 2026-05-05 16:03 | 15.85320 | -61.95076 | 37080 ft | 475 kts | 43° |
| 2026-05-05 16:04 | 15.90120 | -61.90306 | 37081 ft | 476 kts | 43° |
| 2026-05-05 16:04 | 15.94879 | -61.85574 | 37083 ft | 476 kts | 43° |
| 2026-05-05 16:05 | 15.99694 | -61.80782 | 37083 ft | 477 kts | 43° |
| 2026-05-05 16:05 | 16.04457 | -61.76038 | 37088 ft | 477 kts | 43° |
| 2026-05-05 16:06 | 16.09267 | -61.71244 | 37102 ft | 476 kts | 42° |
| 2026-05-05 16:06 | 16.14047 | -61.66476 | 37110 ft | 475 kts | 43° |
| 2026-05-05 16:07 | 16.18791 | -61.61737 | 37114 ft | 475 kts | 43° |
| 2026-05-05 16:07 | 16.23557 | -61.56975 | 37119 ft | 475 kts | 42° |
| 2026-05-05 16:08 | 16.28445 | -61.52318 | 37115 ft | 474 kts | 39° |
| 2026-05-05 16:08 | 16.33478 | -61.47904 | 37105 ft | 474 kts | 39° |
| 2026-05-05 16:09 | 16.38565 | -61.43453 | 37099 ft | 474 kts | 38° |
| 2026-05-05 16:09 | 16.43576 | -61.39055 | 37095 ft | 474 kts | 38° |
| 2026-05-05 16:10 | 16.48643 | -61.34604 | 37092 ft | 474 kts | 39° |
| 2026-05-05 16:10 | 16.53650 | -61.30197 | 37093 ft | 474 kts | 39° |
| 2026-05-05 16:11 | 16.58693 | -61.25759 | 37094 ft | 474 kts | 39° |
| 2026-05-05 16:12 | 16.68789 | -61.16860 | 37097 ft | 474 kts | 39° |
| 2026-05-05 16:13 | 16.81374 | -61.05750 | 37099 ft | 474 kts | 39° |
| 2026-05-05 16:13 | 16.86408 | -61.01300 | 37100 ft | 474 kts | 39° |
| 2026-05-05 16:14 | 16.96456 | -60.92410 | 37102 ft | 474 kts | 39° |
| 2026-05-05 16:15 | 17.06535 | -60.83478 | 37108 ft | 474 kts | 39° |
| 2026-05-05 16:16 | 17.16596 | -60.74550 | 37112 ft | 474 kts | 39° |
| 2026-05-05 16:17 | 17.24122 | -60.67862 | 37112 ft | 474 kts | 39° |
| 2026-05-05 16:18 | 17.31677 | -60.61140 | 37112 ft | 474 kts | 39° |
| 2026-05-05 16:19 | 17.39213 | -60.54430 | 37114 ft | 475 kts | 39° |
| 2026-05-05 16:19 | 17.46767 | -60.47694 | 37116 ft | 475 kts | 39° |
| 2026-05-05 16:20 | 17.56805 | -60.38731 | 37117 ft | 474 kts | 39° |
| 2026-05-05 16:22 | 17.69372 | -60.27491 | 37127 ft | 475 kts | 39° |
| 2026-05-05 16:23 | 17.79389 | -60.18516 | 37123 ft | 472 kts | 39° |
| 2026-05-05 16:23 | 17.86875 | -60.11799 | 37120 ft | 472 kts | 39° |
| 2026-05-05 16:24 | 17.91881 | -60.07301 | 37121 ft | 473 kts | 39° |
| 2026-05-05 16:25 | 17.99323 | -60.00522 | 37122 ft | 473 kts | 42° |
| 2026-05-05 16:25 | 18.06139 | -59.93013 | 37120 ft | 474 kts | 46° |
| 2026-05-05 16:26 | 18.15046 | -59.82779 | 37120 ft | 475 kts | 46° |
| 2026-05-05 16:27 | 18.19492 | -59.77676 | 37120 ft | 475 kts | 46° |
| 2026-05-05 16:27 | 18.23972 | -59.72528 | 37120 ft | 475 kts | 46° |
| 2026-05-05 16:28 | 18.28422 | -59.67409 | 37120 ft | 475 kts | 46° |
| 2026-05-05 16:28 | 18.32884 | -59.62270 | 37120 ft | 475 kts | 46° |
| 2026-05-05 16:29 | 18.37314 | -59.57171 | 37120 ft | 475 kts | 46° |
| 2026-05-05 16:29 | 18.41784 | -59.52020 | 37120 ft | 475 kts | 46° |
| 2026-05-05 16:30 | 18.46229 | -59.46895 | 37121 ft | 476 kts | 46° |
| 2026-05-05 16:30 | 18.50698 | -59.41736 | 37121 ft | 476 kts | 46° |
| 2026-05-05 16:31 | 18.55171 | -59.36566 | 37121 ft | 476 kts | 46° |
| 2026-05-05 16:31 | 18.59608 | -59.31433 | 37121 ft | 475 kts | 46° |
| 2026-05-05 16:32 | 18.64069 | -59.26269 | 37121 ft | 476 kts | 46° |
| 2026-05-05 16:32 | 18.68516 | -59.21119 | 37122 ft | 476 kts | 46° |
| 2026-05-05 16:33 | 18.72971 | -59.15954 | 37121 ft | 476 kts | 46° |
| 2026-05-05 16:33 | 18.77441 | -59.10766 | 37122 ft | 477 kts | 46° |
| 2026-05-05 16:34 | 18.81899 | -59.05587 | 37121 ft | 476 kts | 46° |
| 2026-05-05 16:34 | 18.86338 | -59.00428 | 37121 ft | 476 kts | 46° |
| 2026-05-05 16:35 | 18.90781 | -58.95256 | 37121 ft | 476 kts | 46° |
| 2026-05-05 16:35 | 18.95244 | -58.90060 | 37122 ft | 475 kts | 46° |
| 2026-05-05 16:36 | 18.99667 | -58.84902 | 37121 ft | 476 kts | 46° |
| 2026-05-05 16:36 | 19.04110 | -58.79720 | 37121 ft | 477 kts | 46° |
| 2026-05-05 16:37 | 19.08464 | -58.74637 | 37122 ft | 477 kts | 46° |
| 2026-05-05 16:37 | 19.12905 | -58.69449 | 37123 ft | 477 kts | 46° |
| 2026-05-05 16:38 | 19.17344 | -58.64256 | 37123 ft | 476 kts | 46° |
| 2026-05-05 16:38 | 19.21772 | -58.59074 | 37123 ft | 475 kts | 46° |
| 2026-05-05 16:39 | 19.26200 | -58.53886 | 37124 ft | 475 kts | 46° |
| 2026-05-05 16:39 | 19.30611 | -58.48713 | 37125 ft | 476 kts | 46° |
| 2026-05-05 16:40 | 19.35049 | -58.43503 | 37126 ft | 476 kts | 46° |
| 2026-05-05 16:40 | 19.39505 | -58.38271 | 37127 ft | 477 kts | 46° |
| 2026-05-05 16:41 | 19.43942 | -58.33054 | 37129 ft | 477 kts | 46° |
| 2026-05-05 16:41 | 19.48376 | -58.27836 | 37130 ft | 476 kts | 46° |
| 2026-05-05 16:42 | 19.52784 | -58.22645 | 37131 ft | 476 kts | 47° |
| 2026-05-05 16:42 | 19.57201 | -58.17440 | 37133 ft | 476 kts | 46° |
| 2026-05-05 16:43 | 19.61625 | -58.12220 | 37134 ft | 476 kts | 46° |
| 2026-05-05 16:43 | 19.66073 | -58.06971 | 37137 ft | 477 kts | 46° |
| 2026-05-05 16:44 | 19.70487 | -58.01752 | 37136 ft | 477 kts | 46° |
| 2026-05-05 16:44 | 19.74922 | -57.96506 | 37136 ft | 477 kts | 46° |
| 2026-05-05 16:45 | 19.79349 | -57.91267 | 37139 ft | 477 kts | 46° |
| 2026-05-05 16:45 | 19.83769 | -57.86028 | 37142 ft | 477 kts | 46° |
| 2026-05-05 16:46 | 19.88195 | -57.80780 | 37143 ft | 477 kts | 46° |
| 2026-05-05 16:46 | 19.92619 | -57.75529 | 37142 ft | 477 kts | 46° |
| 2026-05-05 16:47 | 19.97045 | -57.70269 | 37143 ft | 478 kts | 46° |
| 2026-05-05 16:47 | 20.01465 | -57.65012 | 37146 ft | 477 kts | 47° |
| 2026-05-05 16:48 | 20.05878 | -57.59754 | 37144 ft | 477 kts | 46° |
| 2026-05-05 16:48 | 20.10280 | -57.54510 | 37145 ft | 477 kts | 46° |
| 2026-05-05 16:49 | 20.14715 | -57.49222 | 37145 ft | 477 kts | 46° |
| 2026-05-05 16:49 | 20.19116 | -57.43967 | 37142 ft | 478 kts | 46° |
| 2026-05-05 16:50 | 20.23532 | -57.38691 | 37145 ft | 477 kts | 46° |
| 2026-05-05 16:50 | 20.27942 | -57.33419 | 37144 ft | 477 kts | 47° |
| 2026-05-05 16:51 | 20.32357 | -57.28131 | 37143 ft | 477 kts | 47° |
| 2026-05-05 16:51 | 20.36769 | -57.22845 | 37143 ft | 477 kts | 47° |
| 2026-05-05 16:52 | 20.41158 | -57.17581 | 37143 ft | 477 kts | 47° |
| 2026-05-05 16:52 | 20.45578 | -57.12277 | 37144 ft | 477 kts | 47° |
| 2026-05-05 16:53 | 20.49972 | -57.06998 | 37144 ft | 478 kts | 47° |
| 2026-05-05 16:53 | 20.54392 | -57.01681 | 37143 ft | 478 kts | 47° |
| 2026-05-05 16:54 | 20.58799 | -56.96377 | 37142 ft | 478 kts | 47° |
| 2026-05-05 16:54 | 20.63207 | -56.91066 | 37142 ft | 478 kts | 47° |
| 2026-05-05 16:55 | 20.67600 | -56.85765 | 37142 ft | 478 kts | 47° |
| 2026-05-05 16:55 | 20.71989 | -56.80466 | 37143 ft | 478 kts | 47° |
| 2026-05-05 16:56 | 20.76409 | -56.75126 | 37142 ft | 478 kts | 47° |
| 2026-05-05 16:56 | 20.80789 | -56.69829 | 37141 ft | 478 kts | 47° |
| 2026-05-05 16:57 | 20.85199 | -56.64489 | 37143 ft | 478 kts | 47° |
| 2026-05-05 16:57 | 20.89605 | -56.59150 | 37142 ft | 478 kts | 47° |
| 2026-05-05 16:58 | 20.94002 | -56.53817 | 37141 ft | 478 kts | 47° |
| 2026-05-05 16:58 | 20.98373 | -56.48509 | 37142 ft | 478 kts | 47° |
| 2026-05-05 16:59 | 21.02766 | -56.43168 | 37144 ft | 479 kts | 47° |
| 2026-05-05 16:59 | 21.07175 | -56.37804 | 37142 ft | 479 kts | 47° |
| 2026-05-05 17:00 | 21.11555 | -56.32471 | 37145 ft | 479 kts | 47° |
| 2026-05-05 17:00 | 21.15966 | -56.27095 | 37146 ft | 479 kts | 47° |
| 2026-05-05 17:01 | 21.20330 | -56.21770 | 37144 ft | 479 kts | 47° |
| 2026-05-05 17:01 | 21.24745 | -56.16379 | 37146 ft | 479 kts | 47° |
| 2026-05-05 17:02 | 21.29115 | -56.11035 | 37146 ft | 479 kts | 47° |
| 2026-05-05 17:02 | 21.33515 | -56.05651 | 37149 ft | 479 kts | 47° |
| 2026-05-05 17:03 | 21.37885 | -56.00300 | 37151 ft | 479 kts | 47° |
| 2026-05-05 17:03 | 21.42263 | -55.94931 | 37152 ft | 479 kts | 47° |
| 2026-05-05 17:04 | 21.46634 | -55.89564 | 37155 ft | 479 kts | 47° |
| 2026-05-05 17:04 | 21.51043 | -55.84147 | 37153 ft | 480 kts | 47° |
| 2026-05-05 17:05 | 21.55408 | -55.78779 | 37153 ft | 479 kts | 47° |
| 2026-05-05 17:05 | 21.59790 | -55.73385 | 37155 ft | 479 kts | 47° |
| 2026-05-05 17:06 | 21.64162 | -55.67998 | 37157 ft | 479 kts | 47° |
| 2026-05-05 17:06 | 21.68547 | -55.62590 | 37156 ft | 480 kts | 47° |
| 2026-05-05 17:07 | 21.72916 | -55.57195 | 37159 ft | 479 kts | 47° |
| 2026-05-05 17:07 | 21.77306 | -55.51768 | 37159 ft | 479 kts | 47° |
| 2026-05-05 17:08 | 21.81663 | -55.46376 | 37160 ft | 479 kts | 47° |
| 2026-05-05 17:08 | 21.86042 | -55.40952 | 37161 ft | 480 kts | 47° |
| 2026-05-05 17:09 | 21.90425 | -55.35519 | 37160 ft | 480 kts | 47° |
| 2026-05-05 17:09 | 21.94801 | -55.30091 | 37161 ft | 480 kts | 47° |
| 2026-05-05 17:10 | 21.99170 | -55.24663 | 37163 ft | 480 kts | 47° |
| 2026-05-05 17:10 | 22.03528 | -55.19244 | 37163 ft | 479 kts | 47° |
| 2026-05-05 17:11 | 22.07899 | -55.13801 | 37164 ft | 479 kts | 47° |
| 2026-05-05 17:11 | 22.12240 | -55.08388 | 37166 ft | 479 kts | 47° |
| 2026-05-05 17:12 | 22.16596 | -55.02954 | 37164 ft | 480 kts | 47° |
| 2026-05-05 17:12 | 22.20949 | -54.97519 | 37164 ft | 481 kts | 47° |
| 2026-05-05 17:13 | 22.25335 | -54.92036 | 37163 ft | 480 kts | 47° |
| 2026-05-05 17:13 | 22.29687 | -54.86589 | 37164 ft | 481 kts | 47° |
| 2026-05-05 17:14 | 22.34047 | -54.81128 | 37163 ft | 480 kts | 47° |
| 2026-05-05 17:14 | 22.38395 | -54.75676 | 37162 ft | 479 kts | 47° |
| 2026-05-05 17:15 | 22.42730 | -54.70235 | 37162 ft | 479 kts | 47° |
| 2026-05-05 17:15 | 22.47074 | -54.64780 | 37163 ft | 480 kts | 47° |
| 2026-05-05 17:16 | 22.51442 | -54.59287 | 37160 ft | 480 kts | 47° |
| 2026-05-05 17:16 | 22.55773 | -54.53836 | 37162 ft | 480 kts | 47° |
| 2026-05-05 17:17 | 22.60133 | -54.48338 | 37162 ft | 481 kts | 47° |
| 2026-05-05 17:17 | 22.64474 | -54.42863 | 37163 ft | 481 kts | 47° |
| 2026-05-05 17:18 | 22.68821 | -54.37370 | 37161 ft | 481 kts | 47° |
| 2026-05-05 17:18 | 22.73169 | -54.31873 | 37162 ft | 480 kts | 47° |
| 2026-05-05 17:19 | 22.77503 | -54.26391 | 37160 ft | 480 kts | 47° |
| 2026-05-05 17:19 | 22.81847 | -54.20885 | 37162 ft | 481 kts | 47° |
| 2026-05-05 17:20 | 22.86207 | -54.15352 | 37161 ft | 481 kts | 47° |
| 2026-05-05 17:20 | 22.90547 | -54.09841 | 37158 ft | 481 kts | 47° |
| 2026-05-05 17:21 | 22.94883 | -54.04329 | 37161 ft | 481 kts | 47° |
| 2026-05-05 17:22 | 23.01372 | -53.96068 | 37165 ft | 482 kts | 47° |
| 2026-05-05 17:22 | 23.05716 | -53.90528 | 37169 ft | 482 kts | 47° |
| 2026-05-05 17:23 | 23.10064 | -53.84982 | 37171 ft | 482 kts | 47° |
| 2026-05-05 17:23 | 23.14414 | -53.79424 | 37166 ft | 482 kts | 47° |
| 2026-05-05 17:24 | 23.18759 | -53.73866 | 37174 ft | 482 kts | 47° |
| 2026-05-05 17:24 | 23.23061 | -53.68359 | 37166 ft | 481 kts | 47° |
| 2026-05-05 17:25 | 23.27394 | -53.62803 | 37169 ft | 482 kts | 48° |
| 2026-05-05 17:25 | 23.31715 | -53.57257 | 37171 ft | 482 kts | 47° |
| 2026-05-05 17:26 | 23.36052 | -53.51685 | 37172 ft | 482 kts | 47° |
| 2026-05-05 17:26 | 23.40382 | -53.46115 | 37176 ft | 483 kts | 47° |
| 2026-05-05 17:27 | 23.44708 | -53.40547 | 37172 ft | 483 kts | 47° |
| 2026-05-05 17:27 | 23.49050 | -53.34950 | 37173 ft | 482 kts | 48° |
| 2026-05-05 17:28 | 23.53383 | -53.29359 | 37175 ft | 482 kts | 48° |
| 2026-05-05 17:28 | 23.57697 | -53.23786 | 37173 ft | 482 kts | 48° |
| 2026-05-05 17:29 | 23.62001 | -53.18222 | 37175 ft | 482 kts | 48° |
| 2026-05-05 17:29 | 23.66321 | -53.12630 | 37175 ft | 482 kts | 48° |
| 2026-05-05 17:30 | 23.70630 | -53.07042 | 37176 ft | 483 kts | 48° |
| 2026-05-05 17:30 | 23.74939 | -53.01452 | 37178 ft | 483 kts | 48° |
| 2026-05-05 17:31 | 23.79271 | -52.95820 | 37180 ft | 483 kts | 48° |
| 2026-05-05 17:31 | 23.83583 | -52.90208 | 37183 ft | 482 kts | 48° |
| 2026-05-05 17:32 | 23.87877 | -52.84617 | 37182 ft | 482 kts | 48° |
| 2026-05-05 17:32 | 23.92193 | -52.78992 | 37184 ft | 483 kts | 48° |
| 2026-05-05 17:33 | 23.96499 | -52.73373 | 37183 ft | 482 kts | 48° |
| 2026-05-05 17:33 | 24.00782 | -52.67778 | 37184 ft | 482 kts | 48° |
| 2026-05-05 17:34 | 24.05072 | -52.62165 | 37185 ft | 483 kts | 48° |
| 2026-05-05 17:34 | 24.09399 | -52.56497 | 37187 ft | 483 kts | 48° |
| 2026-05-05 17:35 | 24.13687 | -52.50877 | 37187 ft | 483 kts | 48° |
| 2026-05-05 17:35 | 24.17988 | -52.45233 | 37186 ft | 482 kts | 48° |
| 2026-05-05 17:36 | 24.22265 | -52.39612 | 37189 ft | 483 kts | 48° |
| 2026-05-05 17:36 | 24.26560 | -52.33964 | 37186 ft | 483 kts | 48° |
| 2026-05-05 17:37 | 24.30863 | -52.28295 | 37190 ft | 483 kts | 48° |
| 2026-05-05 17:37 | 24.35136 | -52.22660 | 37194 ft | 483 kts | 49° |
| 2026-05-05 17:38 | 24.39422 | -52.17001 | 37190 ft | 483 kts | 48° |
| 2026-05-05 17:38 | 24.43710 | -52.11335 | 37193 ft | 483 kts | 48° |
| 2026-05-05 17:39 | 24.47992 | -52.05668 | 37192 ft | 483 kts | 48° |
| 2026-05-05 17:39 | 24.52284 | -51.99983 | 37197 ft | 484 kts | 48° |
| 2026-05-05 17:40 | 24.56562 | -51.94309 | 37192 ft | 484 kts | 48° |
| 2026-05-05 17:40 | 24.60861 | -51.88600 | 37187 ft | 483 kts | 48° |
| 2026-05-05 17:41 | 24.65123 | -51.82935 | 37189 ft | 483 kts | 49° |
| 2026-05-05 17:41 | 24.69380 | -51.77268 | 37186 ft | 483 kts | 48° |
| 2026-05-05 17:42 | 24.73675 | -51.71545 | 37181 ft | 483 kts | 48° |
| 2026-05-05 17:42 | 24.77943 | -51.65851 | 37181 ft | 483 kts | 48° |
| 2026-05-05 17:43 | 24.82184 | -51.60186 | 37183 ft | 483 kts | 49° |
| 2026-05-05 17:43 | 24.86463 | -51.54462 | 37180 ft | 483 kts | 49° |
| 2026-05-05 17:44 | 24.90722 | -51.48758 | 37185 ft | 483 kts | 48° |
| 2026-05-05 17:44 | 24.94983 | -51.43046 | 37183 ft | 483 kts | 48° |
| 2026-05-05 17:45 | 24.99243 | -51.37329 | 37183 ft | 483 kts | 48° |
| 2026-05-05 17:45 | 25.03506 | -51.31601 | 37183 ft | 483 kts | 49° |
| 2026-05-05 17:46 | 25.07754 | -51.25885 | 37182 ft | 483 kts | 49° |
| 2026-05-05 17:46 | 25.12005 | -51.20158 | 37182 ft | 483 kts | 49° |
| 2026-05-05 17:47 | 25.16270 | -51.14407 | 37182 ft | 483 kts | 49° |
| 2026-05-05 17:47 | 25.20502 | -51.08690 | 37182 ft | 483 kts | 49° |
| 2026-05-05 17:48 | 25.24744 | -51.02959 | 37182 ft | 483 kts | 49° |
| 2026-05-05 17:48 | 25.29011 | -50.97180 | 37182 ft | 484 kts | 49° |
| 2026-05-05 17:49 | 25.33240 | -50.91449 | 37181 ft | 484 kts | 49° |
| 2026-05-05 17:49 | 25.37484 | -50.85689 | 37182 ft | 484 kts | 49° |
| 2026-05-05 17:50 | 25.41755 | -50.79888 | 37183 ft | 483 kts | 49° |
| 2026-05-05 17:50 | 25.45967 | -50.74158 | 37182 ft | 483 kts | 49° |
| 2026-05-05 17:51 | 25.50200 | -50.68391 | 37182 ft | 483 kts | 49° |
| 2026-05-05 17:51 | 25.54439 | -50.62608 | 37182 ft | 483 kts | 49° |
| 2026-05-05 17:52 | 25.58662 | -50.56843 | 37183 ft | 483 kts | 49° |
| 2026-05-05 17:52 | 25.62894 | -50.51056 | 37186 ft | 483 kts | 49° |
| 2026-05-05 17:53 | 25.67123 | -50.45271 | 37188 ft | 484 kts | 48° |
| 2026-05-05 17:53 | 25.71337 | -50.39496 | 37192 ft | 484 kts | 48° |
| 2026-05-05 17:54 | 25.75565 | -50.33696 | 37190 ft | 484 kts | 49° |
| 2026-05-05 17:54 | 25.79797 | -50.27878 | 37192 ft | 484 kts | 49° |
| 2026-05-05 17:55 | 25.83997 | -50.22099 | 37192 ft | 483 kts | 49° |
| 2026-05-05 17:55 | 25.88222 | -50.16276 | 37198 ft | 483 kts | 49° |
| 2026-05-05 17:56 | 25.92422 | -50.10479 | 37198 ft | 483 kts | 49° |
| 2026-05-05 17:56 | 25.96614 | -50.04690 | 37202 ft | 483 kts | 49° |
| 2026-05-05 17:57 | 26.01036 | -49.99033 | 37203 ft | 482 kts | 43° |
| 2026-05-05 17:57 | 26.05841 | -49.93899 | 37204 ft | 481 kts | 40° |
| 2026-05-05 17:58 | 26.10728 | -49.88836 | 37207 ft | 482 kts | 40° |
| 2026-05-05 17:58 | 26.15628 | -49.83748 | 37206 ft | 481 kts | 40° |
| 2026-05-05 17:59 | 26.20507 | -49.78666 | 37204 ft | 481 kts | 40° |
| 2026-05-05 17:59 | 26.25395 | -49.73563 | 37203 ft | 482 kts | 40° |
| 2026-05-05 18:00 | 26.29465 | -49.69307 | 37203 ft | 482 kts | 40° |
| 2026-05-05 18:00 | 26.35147 | -49.63358 | 37206 ft | 482 kts | 40° |
| 2026-05-05 18:01 | 26.40019 | -49.58249 | 37205 ft | 482 kts | 40° |
| 2026-05-05 18:01 | 26.44925 | -49.53099 | 37206 ft | 481 kts | 40° |
| 2026-05-05 18:02 | 26.49783 | -49.47995 | 37202 ft | 482 kts | 40° |
| 2026-05-05 18:02 | 26.54659 | -49.42866 | 37204 ft | 483 kts | 40° |
| 2026-05-05 18:03 | 26.59563 | -49.37700 | 37207 ft | 483 kts | 40° |
| 2026-05-05 18:03 | 26.64453 | -49.32542 | 37211 ft | 484 kts | 41° |
| 2026-05-05 18:04 | 26.69330 | -49.27391 | 37216 ft | 484 kts | 41° |
| 2026-05-05 18:04 | 26.74238 | -49.22201 | 37219 ft | 485 kts | 40° |
| 2026-05-05 18:05 | 26.79127 | -49.17025 | 37222 ft | 485 kts | 40° |
| 2026-05-05 18:05 | 26.84029 | -49.11829 | 37222 ft | 485 kts | 40° |
| 2026-05-05 18:06 | 26.88920 | -49.06639 | 37222 ft | 485 kts | 40° |
| 2026-05-05 18:06 | 26.93800 | -49.01452 | 37224 ft | 486 kts | 40° |
| 2026-05-05 18:07 | 26.98693 | -48.96244 | 37215 ft | 485 kts | 40° |
| 2026-05-05 18:07 | 27.03575 | -48.91042 | 37211 ft | 485 kts | 40° |
| 2026-05-05 18:08 | 27.08466 | -48.85823 | 37207 ft | 485 kts | 40° |
| 2026-05-05 18:08 | 27.13341 | -48.80617 | 37206 ft | 485 kts | 40° |
| 2026-05-05 18:09 | 27.18230 | -48.75389 | 37207 ft | 485 kts | 40° |
| 2026-05-05 18:09 | 27.23125 | -48.70147 | 37208 ft | 485 kts | 40° |
| 2026-05-05 18:10 | 27.28003 | -48.64919 | 37206 ft | 485 kts | 40° |
| 2026-05-05 18:10 | 27.32866 | -48.59698 | 37209 ft | 484 kts | 40° |
| 2026-05-05 18:11 | 27.37755 | -48.54442 | 37207 ft | 484 kts | 40° |
| 2026-05-05 18:11 | 27.42639 | -48.49186 | 37208 ft | 483 kts | 40° |
| 2026-05-05 18:12 | 27.47477 | -48.43973 | 37210 ft | 484 kts | 40° |
| 2026-05-05 18:12 | 27.52332 | -48.38735 | 37209 ft | 484 kts | 40° |
| 2026-05-05 18:13 | 27.57186 | -48.33491 | 37211 ft | 484 kts | 40° |
| 2026-05-05 18:13 | 27.62072 | -48.28205 | 37212 ft | 485 kts | 40° |
| 2026-05-05 18:14 | 27.66905 | -48.22971 | 37218 ft | 485 kts | 40° |
| 2026-05-05 18:14 | 27.71770 | -48.17693 | 37222 ft | 485 kts | 40° |
| 2026-05-05 18:15 | 27.76638 | -48.12407 | 37227 ft | 484 kts | 40° |
| 2026-05-05 18:15 | 27.81477 | -48.07143 | 37234 ft | 484 kts | 40° |
| 2026-05-05 18:16 | 27.86328 | -48.01862 | 37235 ft | 484 kts | 40° |
| 2026-05-05 18:16 | 27.91167 | -47.96587 | 37229 ft | 483 kts | 40° |
| 2026-05-05 18:17 | 27.95978 | -47.91333 | 37226 ft | 483 kts | 40° |
| 2026-05-05 18:17 | 28.00824 | -47.86034 | 37226 ft | 484 kts | 40° |
| 2026-05-05 18:18 | 28.05638 | -47.80765 | 37228 ft | 483 kts | 40° |
| 2026-05-05 18:18 | 28.10479 | -47.75459 | 37232 ft | 483 kts | 40° |
| 2026-05-05 18:19 | 28.15324 | -47.70142 | 37231 ft | 484 kts | 40° |
| 2026-05-05 18:19 | 28.20136 | -47.64855 | 37234 ft | 483 kts | 40° |
| 2026-05-05 18:20 | 28.24951 | -47.59556 | 37234 ft | 483 kts | 40° |
| 2026-05-05 18:20 | 28.29781 | -47.54233 | 37235 ft | 483 kts | 40° |
| 2026-05-05 18:21 | 28.34568 | -47.48952 | 37236 ft | 483 kts | 40° |
| 2026-05-05 18:21 | 28.39373 | -47.43643 | 37234 ft | 483 kts | 40° |
| 2026-05-05 18:22 | 28.44179 | -47.38326 | 37233 ft | 483 kts | 40° |
| 2026-05-05 18:22 | 28.48978 | -47.33011 | 37231 ft | 483 kts | 40° |
| 2026-05-05 18:23 | 28.53787 | -47.27676 | 37234 ft | 483 kts | 40° |
| 2026-05-05 18:23 | 28.58610 | -47.22316 | 37234 ft | 483 kts | 40° |
| 2026-05-05 18:24 | 28.63391 | -47.16998 | 37237 ft | 483 kts | 40° |
| 2026-05-05 18:24 | 28.68211 | -47.11633 | 37239 ft | 484 kts | 40° |
| 2026-05-05 18:25 | 28.73020 | -47.06268 | 37239 ft | 484 kts | 40° |
| 2026-05-05 18:25 | 28.77801 | -47.00927 | 37239 ft | 484 kts | 40° |
| 2026-05-05 18:26 | 28.82602 | -46.95560 | 37240 ft | 483 kts | 40° |
| 2026-05-05 18:26 | 28.87382 | -46.90206 | 37241 ft | 483 kts | 40° |
| 2026-05-05 18:27 | 28.92205 | -46.84801 | 37243 ft | 484 kts | 40° |
| 2026-05-05 18:27 | 28.96969 | -46.79453 | 37243 ft | 484 kts | 40° |
| 2026-05-05 18:28 | 29.04180 | -46.71341 | 37243 ft | 484 kts | 40° |
| 2026-05-05 18:28 | 29.08953 | -46.65962 | 37246 ft | 483 kts | 40° |
| 2026-05-05 18:29 | 29.13747 | -46.60554 | 37246 ft | 483 kts | 40° |
| 2026-05-05 18:29 | 29.18540 | -46.55139 | 37246 ft | 483 kts | 40° |
| 2026-05-05 18:30 | 29.23286 | -46.49770 | 37245 ft | 482 kts | 40° |
| 2026-05-05 18:30 | 29.28059 | -46.44361 | 37245 ft | 482 kts | 40° |
| 2026-05-05 18:31 | 29.32822 | -46.38956 | 37246 ft | 483 kts | 40° |
| 2026-05-05 18:31 | 29.37578 | -46.33551 | 37245 ft | 483 kts | 41° |
| 2026-05-05 18:32 | 29.42334 | -46.28141 | 37247 ft | 483 kts | 41° |
| 2026-05-05 18:32 | 29.47119 | -46.22692 | 37245 ft | 483 kts | 41° |
| 2026-05-05 18:33 | 29.51868 | -46.17271 | 37248 ft | 484 kts | 41° |
| 2026-05-05 18:33 | 29.56636 | -46.11823 | 37246 ft | 484 kts | 41° |
| 2026-05-05 18:34 | 29.61419 | -46.06351 | 37248 ft | 485 kts | 41° |
| 2026-05-05 18:34 | 29.66165 | -46.00912 | 37244 ft | 485 kts | 41° |
| 2026-05-05 18:35 | 29.70957 | -45.95416 | 37248 ft | 484 kts | 41° |
| 2026-05-05 18:35 | 29.75698 | -45.89967 | 37244 ft | 484 kts | 41° |
| 2026-05-05 18:36 | 29.80468 | -45.84477 | 37245 ft | 485 kts | 41° |
| 2026-05-05 18:36 | 29.85213 | -45.79011 | 37248 ft | 485 kts | 41° |
| 2026-05-05 18:37 | 29.89964 | -45.73530 | 37256 ft | 486 kts | 41° |
| 2026-05-05 18:37 | 29.94752 | -45.67996 | 37261 ft | 485 kts | 41° |
| 2026-05-05 18:38 | 29.99516 | -45.62482 | 37264 ft | 485 kts | 41° |
| 2026-05-05 18:38 | 30.04250 | -45.56994 | 37264 ft | 485 kts | 41° |
| 2026-05-05 18:39 | 30.09016 | -45.51465 | 37266 ft | 486 kts | 41° |
| 2026-05-05 18:39 | 30.13770 | -45.45938 | 37265 ft | 486 kts | 41° |
| 2026-05-05 18:40 | 30.18534 | -45.40391 | 37266 ft | 486 kts | 41° |
| 2026-05-05 18:40 | 30.23271 | -45.34869 | 37266 ft | 486 kts | 41° |
| 2026-05-05 18:41 | 30.28025 | -45.29319 | 37265 ft | 486 kts | 41° |
| 2026-05-05 18:41 | 30.32763 | -45.23781 | 37265 ft | 486 kts | 41° |
| 2026-05-05 18:42 | 30.37502 | -45.18236 | 37265 ft | 485 kts | 41° |
| 2026-05-05 18:42 | 30.42256 | -45.12661 | 37267 ft | 486 kts | 41° |
| 2026-05-05 18:43 | 30.46995 | -45.07093 | 37267 ft | 486 kts | 41° |
| 2026-05-05 18:43 | 30.51738 | -45.01516 | 37266 ft | 486 kts | 41° |
| 2026-05-05 18:44 | 30.56458 | -44.95957 | 37259 ft | 486 kts | 41° |
| 2026-05-05 18:44 | 30.61178 | -44.90391 | 37258 ft | 486 kts | 41° |
| 2026-05-05 18:45 | 30.65932 | -44.84775 | 37260 ft | 485 kts | 41° |
| 2026-05-05 18:45 | 30.70643 | -44.79207 | 37261 ft | 486 kts | 41° |
| 2026-05-05 18:46 | 30.75378 | -44.73599 | 37261 ft | 486 kts | 41° |
| 2026-05-05 18:46 | 30.80094 | -44.68002 | 37261 ft | 486 kts | 41° |
| 2026-05-05 18:47 | 30.84825 | -44.62382 | 37264 ft | 486 kts | 41° |
| 2026-05-05 18:47 | 30.89523 | -44.56795 | 37263 ft | 485 kts | 41° |
| 2026-05-05 18:48 | 30.94226 | -44.51186 | 37264 ft | 485 kts | 41° |
| 2026-05-05 18:48 | 30.98956 | -44.45540 | 37265 ft | 485 kts | 41° |
| 2026-05-05 18:49 | 31.03637 | -44.39947 | 37264 ft | 485 kts | 41° |
| 2026-05-05 18:49 | 31.08338 | -44.34315 | 37264 ft | 485 kts | 41° |
| 2026-05-05 18:50 | 31.13050 | -44.28666 | 37266 ft | 485 kts | 41° |
| 2026-05-05 18:50 | 31.17762 | -44.23005 | 37266 ft | 486 kts | 41° |
| 2026-05-05 18:51 | 31.22454 | -44.17362 | 37266 ft | 485 kts | 41° |
| 2026-05-05 18:51 | 31.27126 | -44.11734 | 37264 ft | 484 kts | 42° |
| 2026-05-05 18:52 | 31.31812 | -44.06084 | 37273 ft | 484 kts | 41° |
| 2026-05-05 18:52 | 31.36492 | -44.00430 | 37277 ft | 485 kts | 42° |
| 2026-05-05 18:53 | 31.41180 | -43.94758 | 37277 ft | 485 kts | 42° |
| 2026-05-05 18:53 | 31.45845 | -43.89103 | 37275 ft | 484 kts | 42° |
| 2026-05-05 18:54 | 31.50515 | -43.83433 | 37274 ft | 484 kts | 42° |
| 2026-05-05 18:54 | 31.55186 | -43.77754 | 37269 ft | 484 kts | 41° |
| 2026-05-05 18:55 | 31.59841 | -43.72087 | 37271 ft | 484 kts | 41° |
| 2026-05-05 18:55 | 31.64533 | -43.66367 | 37274 ft | 484 kts | 41° |
| 2026-05-05 18:56 | 31.69192 | -43.60677 | 37280 ft | 485 kts | 41° |
| 2026-05-05 18:56 | 31.73846 | -43.54985 | 37282 ft | 485 kts | 41° |
| 2026-05-05 18:57 | 31.78521 | -43.49259 | 37282 ft | 485 kts | 41° |
| 2026-05-05 18:57 | 31.83184 | -43.43537 | 37284 ft | 485 kts | 41° |
| 2026-05-05 18:58 | 31.87810 | -43.37852 | 37287 ft | 484 kts | 41° |
| 2026-05-05 18:58 | 31.92475 | -43.32112 | 37283 ft | 484 kts | 42° |
| 2026-05-05 18:59 | 31.97099 | -43.26411 | 37286 ft | 484 kts | 42° |
| 2026-05-05 18:59 | 32.01747 | -43.20672 | 37285 ft | 485 kts | 42° |
| 2026-05-05 19:00 | 32.06408 | -43.14909 | 37286 ft | 485 kts | 42° |
| 2026-05-05 19:00 | 32.11041 | -43.09170 | 37286 ft | 484 kts | 42° |
| 2026-05-05 19:01 | 32.15668 | -43.03431 | 37286 ft | 484 kts | 42° |
| 2026-05-05 19:01 | 32.20285 | -42.97696 | 37285 ft | 484 kts | 42° |
| 2026-05-05 19:02 | 32.24927 | -42.91918 | 37279 ft | 484 kts | 42° |
| 2026-05-05 19:02 | 32.29549 | -42.86158 | 37273 ft | 484 kts | 42° |
| 2026-05-05 19:03 | 32.34184 | -42.80372 | 37274 ft | 485 kts | 42° |
| 2026-05-05 19:03 | 32.38808 | -42.74589 | 37274 ft | 484 kts | 42° |
| 2026-05-05 19:04 | 32.43431 | -42.68802 | 37273 ft | 484 kts | 42° |
| 2026-05-05 19:04 | 32.48045 | -42.63012 | 37273 ft | 484 kts | 42° |
| 2026-05-05 19:05 | 32.52635 | -42.57245 | 37274 ft | 484 kts | 42° |
| 2026-05-05 19:05 | 32.57256 | -42.51430 | 37277 ft | 485 kts | 42° |
| 2026-05-05 19:06 | 32.61864 | -42.45623 | 37280 ft | 485 kts | 42° |
| 2026-05-05 19:06 | 32.66478 | -42.39800 | 37287 ft | 485 kts | 42° |
| 2026-05-05 19:07 | 32.71102 | -42.33952 | 37286 ft | 485 kts | 43° |
| 2026-05-05 19:07 | 32.75715 | -42.28113 | 37288 ft | 485 kts | 43° |
| 2026-05-05 19:08 | 32.80329 | -42.22258 | 37294 ft | 485 kts | 43° |
| 2026-05-05 19:08 | 32.84916 | -42.16426 | 37294 ft | 484 kts | 42° |
| 2026-05-05 19:09 | 32.89503 | -42.10587 | 37301 ft | 485 kts | 42° |
| 2026-05-05 19:09 | 32.93864 | -42.05032 | 37303 ft | 485 kts | 42° |
| 2026-05-05 19:10 | 32.98467 | -41.99159 | 37305 ft | 486 kts | 42° |
| 2026-05-05 19:10 | 33.03056 | -41.93293 | 37306 ft | 487 kts | 42° |
| 2026-05-05 19:11 | 33.07659 | -41.87395 | 37309 ft | 485 kts | 42° |
| 2026-05-05 19:11 | 33.12243 | -41.81514 | 37307 ft | 485 kts | 42° |
| 2026-05-05 19:12 | 33.16840 | -41.75607 | 37303 ft | 485 kts | 42° |
| 2026-05-05 19:12 | 33.21425 | -41.69705 | 37301 ft | 485 kts | 42° |
| 2026-05-05 19:13 | 33.25983 | -41.63830 | 37300 ft | 486 kts | 42° |
| 2026-05-05 19:13 | 33.30584 | -41.57887 | 37302 ft | 486 kts | 42° |
| 2026-05-05 19:14 | 33.35140 | -41.51992 | 37299 ft | 485 kts | 42° |
| 2026-05-05 19:14 | 33.39709 | -41.46070 | 37302 ft | 484 kts | 42° |
| 2026-05-05 19:15 | 33.44277 | -41.40139 | 37303 ft | 485 kts | 42° |
| 2026-05-05 19:15 | 33.48848 | -41.34197 | 37297 ft | 486 kts | 42° |
| 2026-05-05 19:16 | 33.53398 | -41.28273 | 37298 ft | 485 kts | 43° |
| 2026-05-05 19:16 | 33.57976 | -41.22300 | 37301 ft | 485 kts | 43° |
| 2026-05-05 19:17 | 33.62516 | -41.16366 | 37304 ft | 486 kts | 43° |
| 2026-05-05 19:17 | 33.67078 | -41.10395 | 37309 ft | 485 kts | 43° |
| 2026-05-05 19:18 | 33.71608 | -41.04452 | 37314 ft | 485 kts | 43° |
| 2026-05-05 19:18 | 33.76172 | -40.98456 | 37321 ft | 485 kts | 43° |
| 2026-05-05 19:19 | 33.80692 | -40.92508 | 37316 ft | 485 kts | 43° |
| 2026-05-05 19:19 | 33.85248 | -40.86505 | 37319 ft | 486 kts | 43° |
| 2026-05-05 19:20 | 33.89792 | -40.80503 | 37325 ft | 485 kts | 42° |
| 2026-05-05 19:20 | 33.94303 | -40.74540 | 37327 ft | 485 kts | 42° |
| 2026-05-05 19:21 | 33.98861 | -40.68506 | 37328 ft | 485 kts | 43° |
| 2026-05-05 19:21 | 34.03363 | -40.62530 | 37326 ft | 484 kts | 42° |
| 2026-05-05 19:22 | 34.07893 | -40.56508 | 37327 ft | 484 kts | 42° |
| 2026-05-05 19:22 | 34.12397 | -40.50512 | 37328 ft | 485 kts | 42° |
| 2026-05-05 19:23 | 34.16914 | -40.44487 | 37326 ft | 485 kts | 43° |
| 2026-05-05 19:23 | 34.21440 | -40.38438 | 37321 ft | 484 kts | 43° |
| 2026-05-05 19:24 | 34.25933 | -40.32422 | 37320 ft | 485 kts | 43° |
| 2026-05-05 19:24 | 34.30431 | -40.26390 | 37326 ft | 485 kts | 43° |
| 2026-05-05 19:25 | 34.34943 | -40.20328 | 37323 ft | 485 kts | 43° |
| 2026-05-05 19:25 | 34.39459 | -40.14252 | 37324 ft | 485 kts | 43° |
| 2026-05-05 19:26 | 34.43932 | -40.08217 | 37325 ft | 485 kts | 43° |
| 2026-05-05 19:26 | 34.48428 | -40.02143 | 37318 ft | 484 kts | 43° |
| 2026-05-05 19:27 | 34.53031 | -39.96258 | 37327 ft | 482 kts | 40° |
| 2026-05-05 19:27 | 34.57744 | -39.90474 | 37333 ft | 482 kts | 40° |
| 2026-05-05 19:28 | 34.62442 | -39.84693 | 37336 ft | 482 kts | 39° |
| 2026-05-05 19:28 | 34.67152 | -39.78875 | 37336 ft | 483 kts | 39° |
| 2026-05-05 19:29 | 34.71826 | -39.73092 | 37344 ft | 482 kts | 40° |
| 2026-05-05 19:29 | 34.76532 | -39.67255 | 37343 ft | 483 kts | 40° |
| 2026-05-05 19:30 | 34.81226 | -39.61418 | 37342 ft | 483 kts | 40° |
| 2026-05-05 19:30 | 34.85896 | -39.55604 | 37337 ft | 482 kts | 40° |
| 2026-05-05 19:31 | 34.90572 | -39.49773 | 37340 ft | 483 kts | 40° |
| 2026-05-05 19:31 | 34.95237 | -39.43944 | 37338 ft | 482 kts | 40° |
| 2026-05-05 19:32 | 34.99921 | -39.38082 | 37341 ft | 484 kts | 40° |
| 2026-05-05 19:32 | 35.04627 | -39.32182 | 37340 ft | 483 kts | 40° |
| 2026-05-05 19:33 | 35.09280 | -39.26336 | 37336 ft | 484 kts | 40° |
| 2026-05-05 19:33 | 35.13960 | -39.20446 | 37332 ft | 483 kts | 40° |
| 2026-05-05 19:34 | 35.18617 | -39.14577 | 37333 ft | 483 kts | 40° |
| 2026-05-05 19:35 | 35.25628 | -39.05722 | 37331 ft | 483 kts | 40° |
| 2026-05-05 19:35 | 35.30277 | -38.99840 | 37336 ft | 484 kts | 40° |
| 2026-05-05 19:36 | 35.34953 | -38.93908 | 37336 ft | 484 kts | 40° |
| 2026-05-05 19:36 | 35.39625 | -38.87970 | 37337 ft | 483 kts | 40° |
| 2026-05-05 19:37 | 35.44255 | -38.82078 | 37342 ft | 483 kts | 40° |
| 2026-05-05 19:37 | 35.48904 | -38.76153 | 37347 ft | 483 kts | 40° |
| 2026-05-05 19:38 | 35.53567 | -38.70197 | 37353 ft | 483 kts | 40° |
| 2026-05-05 19:38 | 35.58225 | -38.64239 | 37353 ft | 483 kts | 40° |
| 2026-05-05 19:39 | 35.62893 | -38.58253 | 37357 ft | 483 kts | 40° |
| 2026-05-05 19:39 | 35.67516 | -38.52316 | 37358 ft | 483 kts | 40° |
| 2026-05-05 19:40 | 35.72154 | -38.46351 | 37360 ft | 483 kts | 40° |
| 2026-05-05 19:40 | 35.76805 | -38.40360 | 37358 ft | 484 kts | 40° |
| 2026-05-05 19:41 | 35.81450 | -38.34358 | 37361 ft | 483 kts | 40° |
| 2026-05-05 19:41 | 35.86069 | -38.28384 | 37363 ft | 483 kts | 40° |
| 2026-05-05 19:42 | 35.90683 | -38.22404 | 37366 ft | 483 kts | 40° |
| 2026-05-05 19:42 | 35.95298 | -38.16415 | 37367 ft | 483 kts | 40° |
| 2026-05-05 19:43 | 35.99907 | -38.10418 | 37367 ft | 482 kts | 41° |
| 2026-05-05 19:43 | 36.04527 | -38.04400 | 37371 ft | 483 kts | 40° |
| 2026-05-05 19:44 | 36.09155 | -37.98360 | 37367 ft | 484 kts | 40° |
| 2026-05-05 19:44 | 36.13759 | -37.92335 | 37356 ft | 482 kts | 41° |
| 2026-05-05 19:45 | 36.18324 | -37.86351 | 37354 ft | 482 kts | 40° |
| 2026-05-05 19:45 | 36.22917 | -37.80325 | 37354 ft | 483 kts | 40° |
| 2026-05-05 19:46 | 36.27533 | -37.74257 | 37359 ft | 484 kts | 40° |
| 2026-05-05 19:46 | 36.32128 | -37.68205 | 37360 ft | 484 kts | 40° |
| 2026-05-05 19:47 | 36.36731 | -37.62130 | 37361 ft | 483 kts | 41° |
| 2026-05-05 19:47 | 36.41303 | -37.56083 | 37363 ft | 482 kts | 40° |
| 2026-05-05 19:48 | 36.45898 | -37.49999 | 37369 ft | 483 kts | 41° |
| 2026-05-05 19:48 | 36.50484 | -37.43915 | 37369 ft | 483 kts | 40° |
| 2026-05-05 19:49 | 36.55081 | -37.37801 | 37369 ft | 483 kts | 41° |
| 2026-05-05 19:49 | 36.59650 | -37.31713 | 37370 ft | 482 kts | 41° |
| 2026-05-05 19:50 | 36.64225 | -37.25612 | 37370 ft | 484 kts | 41° |
| 2026-05-05 19:50 | 36.68803 | -37.19493 | 37368 ft | 482 kts | 41° |
| 2026-05-05 19:51 | 36.73363 | -37.13385 | 37372 ft | 483 kts | 41° |
| 2026-05-05 19:51 | 36.77940 | -37.07242 | 37371 ft | 484 kts | 41° |
| 2026-05-05 19:52 | 36.82523 | -37.01081 | 37371 ft | 483 kts | 41° |
| 2026-05-05 19:52 | 36.87071 | -36.94952 | 37372 ft | 484 kts | 41° |
| 2026-05-05 19:53 | 36.91629 | -36.88803 | 37371 ft | 484 kts | 41° |
| 2026-05-05 19:53 | 36.96201 | -36.82621 | 37372 ft | 483 kts | 41° |
| 2026-05-05 19:54 | 37.00734 | -36.76480 | 37375 ft | 484 kts | 41° |
| 2026-05-05 19:54 | 37.05310 | -36.70269 | 37377 ft | 483 kts | 41° |
| 2026-05-05 19:55 | 37.09833 | -36.64114 | 37379 ft | 483 kts | 41° |
| 2026-05-05 19:55 | 37.14373 | -36.57927 | 37388 ft | 483 kts | 41° |
| 2026-05-05 19:56 | 37.18899 | -36.51751 | 37388 ft | 483 kts | 41° |
| 2026-05-05 19:56 | 37.23432 | -36.45551 | 37390 ft | 482 kts | 41° |
| 2026-05-05 19:57 | 37.27959 | -36.39348 | 37390 ft | 482 kts | 41° |
| 2026-05-05 19:57 | 37.32498 | -36.33116 | 37389 ft | 482 kts | 41° |
| 2026-05-05 19:58 | 37.37000 | -36.26926 | 37390 ft | 482 kts | 41° |
| 2026-05-05 19:58 | 37.41502 | -36.20725 | 37389 ft | 482 kts | 41° |
| 2026-05-05 19:59 | 37.46032 | -36.14468 | 37392 ft | 482 kts | 41° |
| 2026-05-05 19:59 | 37.50525 | -36.08253 | 37388 ft | 483 kts | 41° |
| 2026-05-05 20:00 | 37.55049 | -36.01982 | 37390 ft | 483 kts | 41° |
| 2026-05-05 20:00 | 37.59537 | -35.95748 | 37391 ft | 483 kts | 41° |
| 2026-05-05 20:01 | 37.64048 | -35.89470 | 37393 ft | 483 kts | 41° |
| 2026-05-05 20:01 | 37.68529 | -35.83219 | 37394 ft | 482 kts | 41° |
| 2026-05-05 20:02 | 37.73004 | -35.76967 | 37391 ft | 481 kts | 41° |
| 2026-05-05 20:02 | 37.77473 | -35.70714 | 37394 ft | 481 kts | 41° |
| 2026-05-05 20:03 | 37.81946 | -35.64442 | 37400 ft | 480 kts | 41° |
| 2026-05-05 20:03 | 37.86393 | -35.58192 | 37404 ft | 480 kts | 41° |
| 2026-05-05 20:04 | 37.90868 | -35.51893 | 37406 ft | 481 kts | 41° |
| 2026-05-05 20:04 | 37.95302 | -35.45636 | 37404 ft | 480 kts | 41° |
| 2026-05-05 20:05 | 37.99764 | -35.39330 | 37401 ft | 480 kts | 41° |
| 2026-05-05 20:05 | 38.04217 | -35.33023 | 37402 ft | 480 kts | 41° |
| 2026-05-05 20:06 | 38.08646 | -35.26740 | 37403 ft | 480 kts | 41° |
| 2026-05-05 20:06 | 38.13101 | -35.20405 | 37396 ft | 482 kts | 41° |
| 2026-05-05 20:07 | 38.17549 | -35.14066 | 37393 ft | 481 kts | 41° |
| 2026-05-05 20:07 | 38.21988 | -35.07726 | 37395 ft | 481 kts | 41° |
| 2026-05-05 20:08 | 38.26418 | -35.01394 | 37390 ft | 481 kts | 41° |
| 2026-05-05 20:08 | 38.30858 | -34.95028 | 37393 ft | 481 kts | 41° |
| 2026-05-05 20:09 | 38.35278 | -34.88685 | 37391 ft | 481 kts | 41° |
| 2026-05-05 20:09 | 38.39718 | -34.82295 | 37390 ft | 481 kts | 41° |
| 2026-05-05 20:10 | 38.44122 | -34.75943 | 37389 ft | 481 kts | 41° |
| 2026-05-05 20:10 | 38.48537 | -34.69565 | 37390 ft | 481 kts | 41° |
| 2026-05-05 20:11 | 38.52955 | -34.63171 | 37389 ft | 481 kts | 41° |
| 2026-05-05 20:11 | 38.57365 | -34.56771 | 37391 ft | 480 kts | 41° |
| 2026-05-05 20:12 | 38.61747 | -34.50401 | 37393 ft | 480 kts | 41° |
| 2026-05-05 20:12 | 38.66141 | -34.44005 | 37400 ft | 480 kts | 41° |
| 2026-05-05 20:13 | 38.70532 | -34.37595 | 37405 ft | 480 kts | 41° |
| 2026-05-05 20:13 | 38.74939 | -34.31152 | 37408 ft | 481 kts | 41° |
| 2026-05-05 20:14 | 38.79341 | -34.24701 | 37410 ft | 481 kts | 42° |
| 2026-05-05 20:14 | 38.83733 | -34.18254 | 37410 ft | 482 kts | 42° |
| 2026-05-05 20:15 | 38.88130 | -34.11785 | 37410 ft | 482 kts | 42° |
| 2026-05-05 20:15 | 38.92498 | -34.05344 | 37410 ft | 482 kts | 42° |
| 2026-05-05 20:16 | 38.96894 | -33.98845 | 37410 ft | 481 kts | 41° |
| 2026-05-05 20:16 | 39.01253 | -33.92390 | 37409 ft | 480 kts | 41° |
| 2026-05-05 20:17 | 39.05630 | -33.85902 | 37409 ft | 480 kts | 42° |
| 2026-05-05 20:17 | 39.09999 | -33.79407 | 37409 ft | 481 kts | 42° |
| 2026-05-05 20:18 | 39.14378 | -33.72883 | 37409 ft | 480 kts | 42° |
| 2026-05-05 20:18 | 39.18727 | -33.66389 | 37410 ft | 479 kts | 41° |
| 2026-05-05 20:19 | 39.23072 | -33.59893 | 37408 ft | 480 kts | 41° |
| 2026-05-05 20:19 | 39.27389 | -33.53423 | 37408 ft | 480 kts | 42° |
| 2026-05-05 20:20 | 39.31751 | -33.46871 | 37409 ft | 481 kts | 41° |
| 2026-05-05 20:20 | 39.36079 | -33.40358 | 37411 ft | 480 kts | 41° |
| 2026-05-05 20:21 | 39.40438 | -33.33785 | 37405 ft | 481 kts | 42° |
| 2026-05-05 20:21 | 39.44775 | -33.27229 | 37403 ft | 481 kts | 42° |
| 2026-05-05 20:22 | 39.49089 | -33.20694 | 37404 ft | 480 kts | 42° |
| 2026-05-05 20:22 | 39.53412 | -33.14131 | 37407 ft | 481 kts | 42° |
| 2026-05-05 20:23 | 39.57762 | -33.07518 | 37407 ft | 481 kts | 42° |
| 2026-05-05 20:23 | 39.62066 | -33.00958 | 37408 ft | 481 kts | 42° |
| 2026-05-05 20:24 | 39.66382 | -32.94365 | 37410 ft | 480 kts | 42° |
| 2026-05-05 20:24 | 39.70700 | -32.87758 | 37409 ft | 481 kts | 42° |
| 2026-05-05 20:25 | 39.75005 | -32.81155 | 37409 ft | 482 kts | 42° |
| 2026-05-05 20:25 | 39.79326 | -32.74511 | 37411 ft | 482 kts | 42° |
| 2026-05-05 20:26 | 39.83629 | -32.67883 | 37409 ft | 481 kts | 42° |
| 2026-05-05 20:26 | 39.87941 | -32.61226 | 37408 ft | 481 kts | 42° |
| 2026-05-05 20:27 | 39.92224 | -32.54601 | 37407 ft | 480 kts | 42° |
| 2026-05-05 20:27 | 39.96521 | -32.47937 | 37409 ft | 480 kts | 42° |
| 2026-05-05 20:28 | 40.00784 | -32.41315 | 37408 ft | 479 kts | 42° |
| 2026-05-05 20:28 | 40.05051 | -32.34672 | 37409 ft | 479 kts | 43° |
| 2026-05-05 20:29 | 40.09320 | -32.28012 | 37408 ft | 478 kts | 43° |
| 2026-05-05 20:29 | 40.13581 | -32.21346 | 37410 ft | 479 kts | 43° |
| 2026-05-05 20:30 | 40.17843 | -32.14664 | 37409 ft | 479 kts | 43° |
| 2026-05-05 20:30 | 40.22089 | -32.07995 | 37408 ft | 478 kts | 43° |
| 2026-05-05 20:31 | 40.26333 | -32.01318 | 37408 ft | 479 kts | 43° |
| 2026-05-05 20:31 | 40.30579 | -31.94621 | 37414 ft | 478 kts | 43° |
| 2026-05-05 20:32 | 40.34806 | -31.87938 | 37416 ft | 478 kts | 43° |
| 2026-05-05 20:32 | 40.39038 | -31.81236 | 37427 ft | 478 kts | 43° |
| 2026-05-05 20:33 | 40.43256 | -31.74540 | 37424 ft | 477 kts | 43° |
| 2026-05-05 20:33 | 40.47452 | -31.67866 | 37419 ft | 477 kts | 43° |
| 2026-05-05 20:34 | 40.51680 | -31.61124 | 37526 ft | 479 kts | 43° |
| 2026-05-05 20:34 | 40.53796 | -31.57746 | 37834 ft | 478 kts | 43° |
| 2026-05-05 20:34 | 40.55886 | -31.54402 | 38189 ft | 476 kts | 43° |
| 2026-05-05 20:34 | 40.57981 | -31.51049 | 38458 ft | 476 kts | 43° |
| 2026-05-05 20:35 | 40.60085 | -31.47679 | 38666 ft | 476 kts | 43° |
| 2026-05-05 20:35 | 40.62176 | -31.44325 | 38855 ft | 476 kts | 43° |
| 2026-05-05 20:35 | 40.64249 | -31.40995 | 39046 ft | 476 kts | 43° |
| 2026-05-05 20:35 | 40.66358 | -31.37606 | 39252 ft | 476 kts | 43° |
| 2026-05-05 20:36 | 40.68434 | -31.34262 | 39407 ft | 476 kts | 44° |
| 2026-05-05 20:36 | 40.72619 | -31.27516 | 39411 ft | 476 kts | 44° |
| 2026-05-05 20:37 | 40.76808 | -31.20748 | 39417 ft | 476 kts | 44° |
| 2026-05-05 20:37 | 40.80991 | -31.13979 | 39414 ft | 477 kts | 44° |
| 2026-05-05 20:38 | 40.85157 | -31.07217 | 39415 ft | 477 kts | 44° |
| 2026-05-05 20:38 | 40.89334 | -31.00420 | 39415 ft | 477 kts | 43° |
| 2026-05-05 20:39 | 40.93509 | -30.93618 | 39411 ft | 476 kts | 44° |
| 2026-05-05 20:39 | 40.97665 | -30.86832 | 39421 ft | 477 kts | 44° |
| 2026-05-05 20:40 | 41.01798 | -30.80062 | 39424 ft | 475 kts | 44° |
| 2026-05-05 20:40 | 41.05983 | -30.73198 | 39423 ft | 475 kts | 44° |
| 2026-05-05 20:41 | 41.10155 | -30.66333 | 39424 ft | 474 kts | 44° |
| 2026-05-05 20:41 | 41.14287 | -30.59524 | 39422 ft | 474 kts | 43° |
| 2026-05-05 20:42 | 41.18397 | -30.52735 | 39430 ft | 473 kts | 44° |
| 2026-05-05 20:42 | 41.22523 | -30.45906 | 39428 ft | 473 kts | 43° |
| 2026-05-05 20:43 | 41.26608 | -30.39129 | 39434 ft | 472 kts | 43° |
| 2026-05-05 20:43 | 41.30687 | -30.32344 | 39432 ft | 472 kts | 44° |
| 2026-05-05 20:44 | 41.34771 | -30.25538 | 39434 ft | 472 kts | 44° |
| 2026-05-05 20:44 | 41.38851 | -30.18721 | 39440 ft | 471 kts | 44° |
| 2026-05-05 20:45 | 41.44898 | -30.08477 | 39438 ft | 473 kts | 47° |
| 2026-05-05 20:45 | 41.48505 | -30.01076 | 39433 ft | 478 kts | 53° |
| 2026-05-05 20:46 | 41.51493 | -29.93140 | 39421 ft | 485 kts | 60° |
| 2026-05-05 20:46 | 41.53851 | -29.84718 | 39414 ft | 489 kts | 65° |
| 2026-05-05 20:47 | 41.55979 | -29.76087 | 39414 ft | 489 kts | 65° |
| 2026-05-05 20:47 | 41.58090 | -29.67499 | 39413 ft | 488 kts | 65° |
| 2026-05-05 20:48 | 41.60205 | -29.58906 | 39413 ft | 489 kts | 64° |
| 2026-05-05 20:48 | 41.62313 | -29.50339 | 39413 ft | 489 kts | 64° |
| 2026-05-05 20:49 | 41.64428 | -29.41713 | 39413 ft | 489 kts | 64° |
| 2026-05-05 20:49 | 41.66534 | -29.33095 | 39411 ft | 488 kts | 65° |
| 2026-05-05 20:50 | 41.68270 | -29.25963 | 39414 ft | 489 kts | 65° |
| 2026-05-05 20:50 | 41.70721 | -29.15861 | 39416 ft | 490 kts | 65° |
| 2026-05-05 20:51 | 41.72810 | -29.07221 | 39423 ft | 490 kts | 65° |
| 2026-05-05 20:51 | 41.74894 | -28.98562 | 39420 ft | 489 kts | 65° |
| 2026-05-05 20:52 | 41.76957 | -28.89952 | 39425 ft | 488 kts | 65° |
| 2026-05-05 20:52 | 41.79012 | -28.81343 | 39423 ft | 487 kts | 65° |
| 2026-05-05 20:53 | 41.81062 | -28.72741 | 39422 ft | 487 kts | 65° |
| 2026-05-05 20:53 | 41.83114 | -28.64091 | 39420 ft | 488 kts | 65° |
| 2026-05-05 20:54 | 41.85147 | -28.55479 | 39428 ft | 487 kts | 65° |
| 2026-05-05 20:54 | 41.87182 | -28.46830 | 39428 ft | 485 kts | 65° |
| 2026-05-05 20:55 | 41.89190 | -28.38261 | 39429 ft | 485 kts | 64° |
| 2026-05-05 20:55 | 41.91211 | -28.29621 | 39429 ft | 487 kts | 65° |
| 2026-05-05 20:56 | 41.93223 | -28.20968 | 39438 ft | 486 kts | 65° |
| 2026-05-05 20:56 | 41.95221 | -28.12351 | 39429 ft | 485 kts | 65° |
| 2026-05-05 20:57 | 41.97203 | -28.03759 | 39417 ft | 485 kts | 65° |
| 2026-05-05 20:57 | 41.99183 | -27.95149 | 39422 ft | 483 kts | 65° |
| 2026-05-05 20:58 | 42.01160 | -27.86525 | 39416 ft | 485 kts | 65° |
| 2026-05-05 20:58 | 42.03139 | -27.77850 | 39418 ft | 484 kts | 65° |
| 2026-05-05 20:59 | 42.05099 | -27.69225 | 39411 ft | 484 kts | 65° |
| 2026-05-05 20:59 | 42.07046 | -27.60630 | 39419 ft | 484 kts | 64° |
| 2026-05-05 21:00 | 42.08996 | -27.51982 | 39417 ft | 485 kts | 65° |
| 2026-05-05 21:00 | 42.10946 | -27.43298 | 39417 ft | 485 kts | 65° |
| 2026-05-05 21:01 | 42.12878 | -27.34666 | 39414 ft | 485 kts | 65° |
| 2026-05-05 21:01 | 42.14819 | -27.25959 | 39403 ft | 485 kts | 65° |
| 2026-05-05 21:02 | 42.16743 | -27.17292 | 39395 ft | 486 kts | 65° |
| 2026-05-05 21:02 | 42.18666 | -27.08589 | 39406 ft | 486 kts | 65° |
| 2026-05-05 21:03 | 42.20576 | -26.99915 | 39416 ft | 486 kts | 65° |
| 2026-05-05 21:03 | 42.22502 | -26.91137 | 39426 ft | 487 kts | 65° |
| 2026-05-05 21:04 | 42.24404 | -26.82420 | 39420 ft | 487 kts | 65° |
| 2026-05-05 21:04 | 42.26298 | -26.73706 | 39424 ft | 487 kts | 65° |
| 2026-05-05 21:05 | 42.28189 | -26.64970 | 39421 ft | 485 kts | 65° |
| 2026-05-05 21:05 | 42.30072 | -26.56232 | 39419 ft | 484 kts | 65° |
| 2026-05-05 21:06 | 42.31943 | -26.47529 | 39417 ft | 484 kts | 65° |
| 2026-05-05 21:06 | 42.33804 | -26.38831 | 39405 ft | 483 kts | 65° |
| 2026-05-05 21:07 | 42.35661 | -26.30120 | 39389 ft | 484 kts | 65° |
| 2026-05-05 21:07 | 42.37504 | -26.21433 | 39392 ft | 484 kts | 65° |
| 2026-05-05 21:08 | 42.39346 | -26.12717 | 39390 ft | 483 kts | 65° |
| 2026-05-05 21:08 | 42.41179 | -26.04001 | 39389 ft | 483 kts | 65° |
| 2026-05-05 21:09 | 42.42999 | -25.95317 | 39398 ft | 482 kts | 65° |
| 2026-05-05 21:09 | 42.44822 | -25.86586 | 39401 ft | 482 kts | 65° |
| 2026-05-05 21:10 | 42.46624 | -25.77910 | 39406 ft | 482 kts | 65° |
| 2026-05-05 21:10 | 42.48434 | -25.69170 | 39407 ft | 483 kts | 65° |
| 2026-05-05 21:11 | 42.50237 | -25.60429 | 39406 ft | 484 kts | 65° |
| 2026-05-05 21:11 | 42.52032 | -25.51680 | 39400 ft | 484 kts | 65° |
| 2026-05-05 21:12 | 42.53812 | -25.42968 | 39401 ft | 484 kts | 65° |
| 2026-05-05 21:12 | 42.55603 | -25.34184 | 39397 ft | 485 kts | 66° |
| 2026-05-05 21:13 | 42.57395 | -25.25329 | 39394 ft | 485 kts | 66° |
| 2026-05-05 21:13 | 42.59170 | -25.16520 | 39393 ft | 484 kts | 66° |
| 2026-05-05 21:14 | 42.60928 | -25.07767 | 39393 ft | 484 kts | 66° |
| 2026-05-05 21:14 | 42.62686 | -24.98975 | 39390 ft | 485 kts | 66° |
| 2026-05-05 21:15 | 42.64450 | -24.90109 | 39388 ft | 485 kts | 66° |
| 2026-05-05 21:15 | 42.66198 | -24.81283 | 39387 ft | 485 kts | 66° |
| 2026-05-05 21:16 | 42.67931 | -24.72502 | 39332 ft | 485 kts | 66° |
| 2026-05-05 21:16 | 42.69664 | -24.63680 | 39366 ft | 485 kts | 66° |
| 2026-05-05 21:17 | 42.71400 | -24.54814 | 39377 ft | 486 kts | 66° |
| 2026-05-05 21:17 | 42.73112 | -24.46014 | 39377 ft | 485 kts | 66° |
| 2026-05-05 21:18 | 42.74833 | -24.37125 | 39380 ft | 484 kts | 66° |
| 2026-05-05 21:18 | 42.76530 | -24.28336 | 39373 ft | 485 kts | 66° |
| 2026-05-05 21:19 | 42.78231 | -24.19477 | 39375 ft | 484 kts | 66° |
| 2026-05-05 21:19 | 42.79922 | -24.10626 | 39375 ft | 484 kts | 66° |
| 2026-05-05 21:20 | 42.81599 | -24.01807 | 39365 ft | 485 kts | 66° |
| 2026-05-05 21:20 | 42.83281 | -23.92936 | 39365 ft | 485 kts | 66° |
| 2026-05-05 21:21 | 42.84958 | -23.84033 | 39364 ft | 484 kts | 66° |
| 2026-05-05 21:21 | 42.86605 | -23.75247 | 39359 ft | 482 kts | 66° |
| 2026-05-05 21:22 | 42.88253 | -23.66423 | 39359 ft | 482 kts | 66° |
| 2026-05-05 21:22 | 42.89898 | -23.57573 | 39351 ft | 483 kts | 66° |
| 2026-05-05 21:23 | 42.91540 | -23.48698 | 39352 ft | 483 kts | 67° |
| 2026-05-05 21:23 | 42.93166 | -23.39855 | 39353 ft | 481 kts | 67° |
| 2026-05-05 21:24 | 42.94779 | -23.31049 | 39345 ft | 483 kts | 67° |
| 2026-05-05 21:24 | 42.96397 | -23.22177 | 39345 ft | 482 kts | 67° |
| 2026-05-05 21:25 | 42.98007 | -23.13319 | 39342 ft | 483 kts | 67° |
| 2026-05-05 21:25 | 42.99608 | -23.04460 | 39348 ft | 483 kts | 67° |
| 2026-05-05 21:26 | 43.01202 | -22.95594 | 39354 ft | 483 kts | 67° |
| 2026-05-05 21:26 | 43.02790 | -22.86713 | 39362 ft | 482 kts | 68° |
| 2026-05-05 21:27 | 43.04367 | -22.77850 | 39359 ft | 482 kts | 68° |
| 2026-05-05 21:27 | 43.05947 | -22.68938 | 39359 ft | 481 kts | 68° |
| 2026-05-05 21:28 | 43.07501 | -22.60124 | 39359 ft | 481 kts | 68° |
| 2026-05-05 21:28 | 43.09060 | -22.51247 | 39351 ft | 481 kts | 68° |
| 2026-05-05 21:29 | 43.10607 | -22.42385 | 39355 ft | 481 kts | 68° |
| 2026-05-05 21:29 | 43.12153 | -22.33484 | 39352 ft | 481 kts | 69° |
| 2026-05-05 21:30 | 43.13698 | -22.24558 | 39351 ft | 483 kts | 69° |
| 2026-05-05 21:30 | 43.15224 | -22.15684 | 39353 ft | 482 kts | 69° |
| 2026-05-05 21:31 | 43.16745 | -22.06795 | 39350 ft | 482 kts | 69° |
| 2026-05-05 21:31 | 43.18262 | -21.97899 | 39343 ft | 482 kts | 69° |
| 2026-05-05 21:32 | 43.19774 | -21.88970 | 39337 ft | 481 kts | 69° |
| 2026-05-05 21:32 | 43.21275 | -21.80072 | 39337 ft | 482 kts | 69° |
| 2026-05-05 21:33 | 43.22779 | -21.71104 | 39326 ft | 482 kts | 69° |
| 2026-05-05 21:33 | 43.24269 | -21.62181 | 39322 ft | 482 kts | 70° |
| 2026-05-05 21:34 | 43.25744 | -21.53291 | 39325 ft | 482 kts | 70° |
| 2026-05-05 21:34 | 43.27221 | -21.44355 | 39318 ft | 482 kts | 70° |
| 2026-05-05 21:35 | 43.28691 | -21.35404 | 39329 ft | 483 kts | 70° |
| 2026-05-05 21:35 | 43.30151 | -21.26480 | 39318 ft | 484 kts | 71° |
| 2026-05-05 21:36 | 43.31614 | -21.17478 | 39320 ft | 483 kts | 71° |
| 2026-05-05 21:36 | 43.33068 | -21.08489 | 39316 ft | 483 kts | 71° |
| 2026-05-05 21:37 | 43.34510 | -20.99522 | 39324 ft | 484 kts | 71° |
| 2026-05-05 21:37 | 43.35948 | -20.90531 | 39328 ft | 482 kts | 71° |
| 2026-05-05 21:38 | 43.37373 | -20.81576 | 39326 ft | 483 kts | 71° |
| 2026-05-05 21:38 | 43.38799 | -20.72569 | 39327 ft | 483 kts | 71° |
| 2026-05-05 21:39 | 43.40216 | -20.63575 | 39325 ft | 482 kts | 71° |
| 2026-05-05 21:39 | 43.41621 | -20.54598 | 39317 ft | 483 kts | 71° |
| 2026-05-05 21:40 | 43.43029 | -20.45562 | 39324 ft | 483 kts | 71° |
| 2026-05-05 21:40 | 43.44420 | -20.36581 | 39317 ft | 483 kts | 71° |
| 2026-05-05 21:41 | 43.45811 | -20.27550 | 39309 ft | 483 kts | 72° |
| 2026-05-05 21:41 | 43.47192 | -20.18526 | 39315 ft | 483 kts | 72° |
| 2026-05-05 21:42 | 43.48562 | -20.09515 | 39307 ft | 482 kts | 72° |
| 2026-05-05 21:42 | 43.49763 | -20.00464 | 39297 ft | 486 kts | 77° |
| 2026-05-05 21:43 | 43.50297 | -19.91136 | 39306 ft | 492 kts | 82° |
| 2026-05-05 21:43 | 43.50559 | -19.81763 | 39301 ft | 492 kts | 82° |
| 2026-05-05 21:44 | 43.50811 | -19.72339 | 39307 ft | 492 kts | 82° |
| 2026-05-05 21:44 | 43.51065 | -19.62954 | 39295 ft | 491 kts | 82° |
| 2026-05-05 21:45 | 43.51315 | -19.53595 | 39296 ft | 491 kts | 82° |
| 2026-05-05 21:45 | 43.51559 | -19.44224 | 39292 ft | 491 kts | 82° |
| 2026-05-05 21:46 | 43.51794 | -19.34861 | 39283 ft | 491 kts | 82° |
| 2026-05-05 21:46 | 43.52025 | -19.25513 | 39284 ft | 492 kts | 82° |
| 2026-05-05 21:47 | 43.52246 | -19.16100 | 39288 ft | 493 kts | 82° |
| 2026-05-05 21:47 | 43.52462 | -19.06643 | 39289 ft | 493 kts | 82° |
| 2026-05-05 21:48 | 43.52669 | -18.97253 | 39280 ft | 493 kts | 82° |
| 2026-05-05 21:48 | 43.52867 | -18.87853 | 39280 ft | 493 kts | 82° |
| 2026-05-05 21:49 | 43.53057 | -18.78471 | 39276 ft | 492 kts | 83° |
| 2026-05-05 21:49 | 43.53239 | -18.69050 | 39270 ft | 492 kts | 83° |
| 2026-05-05 21:50 | 43.53413 | -18.59669 | 39271 ft | 491 kts | 83° |
| 2026-05-05 21:50 | 43.53581 | -18.50320 | 39276 ft | 491 kts | 83° |
| 2026-05-05 21:51 | 43.53742 | -18.40908 | 39263 ft | 491 kts | 83° |
| 2026-05-05 21:51 | 43.53896 | -18.31523 | 39272 ft | 491 kts | 84° |
| 2026-05-05 21:52 | 43.54108 | -18.17446 | 39259 ft | 492 kts | 84° |
| 2026-05-05 21:53 | 43.54242 | -18.08066 | 39256 ft | 493 kts | 84° |
| 2026-05-05 21:53 | 43.54368 | -17.98628 | 39260 ft | 493 kts | 84° |
| 2026-05-05 21:54 | 43.54486 | -17.89226 | 39263 ft | 493 kts | 84° |
| 2026-05-05 21:54 | 43.54595 | -17.79810 | 39254 ft | 491 kts | 84° |
| 2026-05-05 21:55 | 43.54698 | -17.70415 | 39255 ft | 491 kts | 84° |
| 2026-05-05 21:55 | 43.54793 | -17.61065 | 39259 ft | 492 kts | 84° |
| 2026-05-05 21:56 | 43.54880 | -17.51656 | 39256 ft | 491 kts | 84° |
| 2026-05-05 21:56 | 43.54959 | -17.42241 | 39242 ft | 491 kts | 84° |
| 2026-05-05 21:57 | 43.55033 | -17.32890 | 39240 ft | 492 kts | 84° |
| 2026-05-05 21:57 | 43.55096 | -17.23483 | 39237 ft | 492 kts | 85° |
| 2026-05-05 21:58 | 43.55150 | -17.14096 | 39227 ft | 492 kts | 85° |
| 2026-05-05 21:58 | 43.55198 | -17.04690 | 39216 ft | 491 kts | 85° |
| 2026-05-05 21:59 | 43.55239 | -16.95312 | 39239 ft | 491 kts | 85° |
| 2026-05-05 21:59 | 43.55274 | -16.85941 | 39237 ft | 492 kts | 85° |
| 2026-05-05 22:00 | 43.55299 | -16.76522 | 39238 ft | 492 kts | 85° |
| 2026-05-05 22:00 | 43.55318 | -16.67164 | 39236 ft | 492 kts | 85° |
| 2026-05-05 22:01 | 43.55329 | -16.57738 | 39238 ft | 492 kts | 85° |
| 2026-05-05 22:01 | 43.55333 | -16.48352 | 39233 ft | 493 kts | 85° |
| 2026-05-05 22:02 | 43.55329 | -16.38947 | 39238 ft | 493 kts | 85° |
| 2026-05-05 22:02 | 43.55316 | -16.29540 | 39233 ft | 492 kts | 86° |
| 2026-05-05 22:03 | 43.55296 | -16.20161 | 39231 ft | 492 kts | 86° |
| 2026-05-05 22:03 | 43.55268 | -16.10761 | 39228 ft | 491 kts | 86° |
| 2026-05-05 22:04 | 43.55232 | -16.01398 | 39223 ft | 491 kts | 86° |
| 2026-05-05 22:04 | 43.55188 | -15.92016 | 39223 ft | 490 kts | 86° |
| 2026-05-05 22:05 | 43.55138 | -15.82716 | 39224 ft | 491 kts | 87° |
| 2026-05-05 22:05 | 43.55078 | -15.73282 | 39222 ft | 491 kts | 86° |
| 2026-05-05 22:06 | 43.55012 | -15.63901 | 39222 ft | 491 kts | 87° |
| 2026-05-05 22:06 | 43.54937 | -15.54541 | 39225 ft | 490 kts | 87° |
| 2026-05-05 22:07 | 43.54856 | -15.45227 | 39225 ft | 490 kts | 87° |
| 2026-05-05 22:07 | 43.54768 | -15.35815 | 39223 ft | 491 kts | 87° |
| 2026-05-05 22:08 | 43.54671 | -15.26496 | 39223 ft | 491 kts | 88° |
| 2026-05-05 22:08 | 43.54565 | -15.17100 | 39222 ft | 490 kts | 88° |
| 2026-05-05 22:09 | 43.54453 | -15.07744 | 39223 ft | 490 kts | 88° |
| 2026-05-05 22:09 | 43.54331 | -14.98351 | 39224 ft | 491 kts | 88° |
| 2026-05-05 22:10 | 43.54206 | -14.89023 | 39224 ft | 490 kts | 88° |
| 2026-05-05 22:10 | 43.54073 | -14.79708 | 39220 ft | 489 kts | 88° |
| 2026-05-05 22:11 | 43.53929 | -14.70377 | 39220 ft | 489 kts | 88° |
| 2026-05-05 22:11 | 43.53778 | -14.61032 | 39217 ft | 490 kts | 88° |
| 2026-05-05 22:12 | 43.53621 | -14.51693 | 39214 ft | 490 kts | 88° |
| 2026-05-05 22:12 | 43.53455 | -14.42303 | 39211 ft | 489 kts | 88° |
| 2026-05-05 22:13 | 43.53282 | -14.32984 | 39206 ft | 490 kts | 89° |
| 2026-05-05 22:13 | 43.53102 | -14.23660 | 39206 ft | 489 kts | 89° |
| 2026-05-05 22:14 | 43.52913 | -14.14324 | 39206 ft | 489 kts | 89° |
| 2026-05-05 22:14 | 43.52717 | -14.05017 | 39205 ft | 488 kts | 89° |
| 2026-05-05 22:15 | 43.52515 | -13.95665 | 39205 ft | 489 kts | 89° |
| 2026-05-05 22:15 | 43.52305 | -13.86332 | 39203 ft | 489 kts | 89° |
| 2026-05-05 22:16 | 43.52087 | -13.77042 | 39203 ft | 489 kts | 89° |
| 2026-05-05 22:16 | 43.51861 | -13.67723 | 39193 ft | 489 kts | 89° |
| 2026-05-05 22:17 | 43.51625 | -13.58358 | 39195 ft | 489 kts | 89° |
| 2026-05-05 22:17 | 43.51386 | -13.49091 | 39192 ft | 488 kts | 89° |
| 2026-05-05 22:18 | 43.51139 | -13.39750 | 39188 ft | 488 kts | 89° |
| 2026-05-05 22:18 | 43.50884 | -13.30468 | 39183 ft | 489 kts | 90° |
| 2026-05-05 22:19 | 43.50621 | -13.21138 | 39180 ft | 489 kts | 90° |
| 2026-05-05 22:19 | 43.50351 | -13.11829 | 39174 ft | 489 kts | 90° |
| 2026-05-05 22:20 | 43.50055 | -13.02473 | 39169 ft | 489 kts | 91° |
| 2026-05-05 22:20 | 43.49296 | -12.93178 | 39161 ft | 491 kts | 96° |
| 2026-05-05 22:21 | 43.48310 | -12.83902 | 39166 ft | 491 kts | 96° |
| 2026-05-05 22:21 | 43.47317 | -12.74649 | 39165 ft | 491 kts | 96° |
| 2026-05-05 22:22 | 43.46321 | -12.65394 | 39164 ft | 491 kts | 96° |
| 2026-05-05 22:22 | 43.45320 | -12.56103 | 39163 ft | 492 kts | 96° |
| 2026-05-05 22:23 | 43.44318 | -12.46868 | 39164 ft | 492 kts | 96° |
| 2026-05-05 22:23 | 43.43299 | -12.37561 | 39167 ft | 492 kts | 96° |
| 2026-05-05 22:24 | 43.42273 | -12.28262 | 39161 ft | 492 kts | 97° |
| 2026-05-05 22:24 | 43.41244 | -12.19011 | 39163 ft | 493 kts | 97° |
| 2026-05-05 22:25 | 43.40206 | -12.09747 | 39166 ft | 493 kts | 97° |
| 2026-05-05 22:25 | 43.39156 | -12.00431 | 39162 ft | 493 kts | 97° |
| 2026-05-05 22:26 | 43.38099 | -11.91170 | 39162 ft | 493 kts | 97° |
| 2026-05-05 22:26 | 43.37034 | -11.81910 | 39157 ft | 492 kts | 97° |
| 2026-05-05 22:27 | 43.35962 | -11.72640 | 39159 ft | 492 kts | 97° |
| 2026-05-05 22:27 | 43.34889 | -11.63430 | 39151 ft | 492 kts | 97° |
| 2026-05-05 22:28 | 43.33802 | -11.54152 | 39149 ft | 492 kts | 97° |
| 2026-05-05 22:28 | 43.32714 | -11.44934 | 39149 ft | 492 kts | 97° |
| 2026-05-05 22:29 | 43.31614 | -11.35679 | 39141 ft | 492 kts | 97° |
| 2026-05-05 22:29 | 43.30513 | -11.26472 | 39141 ft | 493 kts | 98° |
| 2026-05-05 22:30 | 43.29400 | -11.17237 | 39136 ft | 493 kts | 98° |
| 2026-05-05 22:30 | 43.28275 | -11.07978 | 39131 ft | 493 kts | 98° |
| 2026-05-05 22:31 | 43.27145 | -10.98743 | 39122 ft | 492 kts | 98° |
| 2026-05-05 22:31 | 43.26007 | -10.89495 | 39120 ft | 492 kts | 98° |
| 2026-05-05 22:32 | 43.24863 | -10.80273 | 39115 ft | 492 kts | 98° |
| 2026-05-05 22:32 | 43.23712 | -10.71057 | 39111 ft | 493 kts | 98° |
| 2026-05-05 22:33 | 43.22557 | -10.61857 | 39110 ft | 493 kts | 98° |
| 2026-05-05 22:33 | 43.21387 | -10.52615 | 39108 ft | 494 kts | 98° |
| 2026-05-05 22:34 | 43.20215 | -10.43408 | 39108 ft | 495 kts | 98° |
| 2026-05-05 22:34 | 43.19024 | -10.34123 | 39106 ft | 495 kts | 99° |
| 2026-05-05 22:35 | 43.17824 | -10.24824 | 39104 ft | 495 kts | 99° |
| 2026-05-05 22:35 | 43.16616 | -10.15533 | 39101 ft | 495 kts | 99° |
| 2026-05-05 22:36 | 43.15407 | -10.06289 | 39099 ft | 495 kts | 99° |
| 2026-05-05 22:36 | 43.14191 | -9.97052 | 39098 ft | 496 kts | 99° |
| 2026-05-05 22:37 | 43.12966 | -9.87806 | 39098 ft | 496 kts | 99° |
| 2026-05-05 22:37 | 43.11731 | -9.78538 | 39096 ft | 496 kts | 99° |
| 2026-05-05 22:38 | 43.10488 | -9.69283 | 39096 ft | 496 kts | 99° |
| 2026-05-05 22:38 | 43.09233 | -9.59999 | 39093 ft | 497 kts | 99° |
| 2026-05-05 22:39 | 43.07973 | -9.50734 | 39092 ft | 497 kts | 99° |
| 2026-05-05 22:39 | 43.06706 | -9.41478 | 39089 ft | 497 kts | 99° |
| 2026-05-05 22:40 | 43.05434 | -9.32235 | 39088 ft | 498 kts | 99° |
| 2026-05-05 22:40 | 43.04148 | -9.22950 | 39087 ft | 498 kts | 100° |
| 2026-05-05 22:41 | 43.02854 | -9.13670 | 39083 ft | 498 kts | 99° |
| 2026-05-05 22:41 | 43.01549 | -9.04364 | 39077 ft | 498 kts | 99° |
| 2026-05-05 22:42 | 43.00234 | -8.95036 | 39071 ft | 499 kts | 99° |
| 2026-05-05 22:42 | 42.98925 | -8.85806 | 39057 ft | 499 kts | 100° |
| 2026-05-05 22:43 | 42.97592 | -8.76483 | 39060 ft | 499 kts | 100° |
| 2026-05-05 22:43 | 42.96255 | -8.67170 | 39063 ft | 499 kts | 99° |
| 2026-05-05 22:44 | 42.94918 | -8.57933 | 39077 ft | 500 kts | 99° |
| 2026-05-05 22:44 | 42.93222 | -8.48755 | 39083 ft | 501 kts | 107° |
| 2026-05-05 22:45 | 42.90689 | -8.39875 | 39085 ft | 501 kts | 114° |
| 2026-05-05 22:45 | 42.87377 | -8.31538 | 39088 ft | 500 kts | 123° |
| 2026-05-05 22:46 | 42.83562 | -8.23611 | 39087 ft | 501 kts | 124° |
| 2026-05-05 22:46 | 42.79724 | -8.15702 | 39080 ft | 501 kts | 123° |
| 2026-05-05 22:47 | 42.75901 | -8.07807 | 39076 ft | 501 kts | 124° |
| 2026-05-05 22:47 | 42.72074 | -7.99909 | 39072 ft | 502 kts | 124° |
| 2026-05-05 22:48 | 42.68212 | -7.91961 | 39069 ft | 502 kts | 124° |
| 2026-05-05 22:48 | 42.64354 | -7.84039 | 39066 ft | 503 kts | 124° |
| 2026-05-05 22:49 | 42.60514 | -7.76176 | 39070 ft | 502 kts | 124° |
| 2026-05-05 22:49 | 42.56648 | -7.68281 | 39071 ft | 503 kts | 124° |
| 2026-05-05 22:50 | 42.52770 | -7.60380 | 39072 ft | 502 kts | 124° |
| 2026-05-05 22:50 | 42.48880 | -7.52477 | 39072 ft | 502 kts | 124° |
| 2026-05-05 22:51 | 42.45009 | -7.44632 | 39072 ft | 502 kts | 124° |
| 2026-05-05 22:51 | 42.41126 | -7.36785 | 39063 ft | 502 kts | 124° |
| 2026-05-05 22:52 | 42.37221 | -7.28913 | 39054 ft | 503 kts | 125° |
| 2026-05-05 22:52 | 42.33309 | -7.21048 | 39043 ft | 504 kts | 125° |
| 2026-05-05 22:53 | 42.29407 | -7.13222 | 39035 ft | 504 kts | 125° |
| 2026-05-05 22:53 | 42.25468 | -7.05344 | 39032 ft | 504 kts | 125° |
| 2026-05-05 22:54 | 42.21569 | -6.97568 | 39035 ft | 504 kts | 125° |
| 2026-05-05 22:54 | 42.17627 | -6.89723 | 39030 ft | 504 kts | 125° |
| 2026-05-05 22:55 | 42.13706 | -6.81942 | 39029 ft | 504 kts | 125° |
| 2026-05-05 22:55 | 42.09746 | -6.74102 | 39026 ft | 504 kts | 125° |
| 2026-05-05 22:56 | 42.05801 | -6.66313 | 39030 ft | 504 kts | 125° |
| 2026-05-05 22:56 | 42.01832 | -6.58496 | 39030 ft | 504 kts | 125° |
| 2026-05-05 22:57 | 41.97882 | -6.50733 | 39035 ft | 505 kts | 126° |
| 2026-05-05 22:57 | 41.93908 | -6.42945 | 39035 ft | 505 kts | 126° |
| 2026-05-05 22:58 | 41.89934 | -6.35176 | 39038 ft | 505 kts | 126° |
| 2026-05-05 22:58 | 41.85945 | -6.27398 | 39036 ft | 505 kts | 126° |
| 2026-05-05 22:59 | 41.81981 | -6.19691 | 39040 ft | 505 kts | 126° |
| 2026-05-05 22:59 | 41.77989 | -6.11967 | 39035 ft | 505 kts | 126° |
| 2026-05-05 23:00 | 41.71983 | -6.00370 | 39036 ft | 505 kts | 126° |
| 2026-05-05 23:00 | 41.68002 | -5.92706 | 39027 ft | 505 kts | 126° |
| 2026-05-05 23:01 | 41.63999 | -5.85018 | 39028 ft | 505 kts | 127° |
| 2026-05-05 23:01 | 41.59969 | -5.77288 | 39032 ft | 505 kts | 126° |
| 2026-05-05 23:02 | 41.55950 | -5.69635 | 39032 ft | 506 kts | 128° |
| 2026-05-05 23:02 | 41.51506 | -5.62435 | 39030 ft | 503 kts | 135° |
| 2026-05-05 23:03 | 41.46514 | -5.56003 | 39032 ft | 501 kts | 140° |
| 2026-05-05 23:03 | 41.41353 | -5.49738 | 39027 ft | 501 kts | 140° |
| 2026-05-05 23:04 | 41.36210 | -5.43489 | 39029 ft | 501 kts | 140° |
| 2026-05-05 23:04 | 41.31086 | -5.37259 | 39032 ft | 501 kts | 140° |
| 2026-05-05 23:05 | 41.25907 | -5.30968 | 39022 ft | 501 kts | 141° |
| 2026-05-05 23:05 | 41.23351 | -5.27871 | 38903 ft | 498 kts | 141° |
| 2026-05-05 23:05 | 41.20802 | -5.24781 | 38300 ft | 500 kts | 141° |
| 2026-05-05 23:06 | 41.18229 | -5.21670 | 37464 ft | 506 kts | 141° |
| 2026-05-05 23:06 | 41.15606 | -5.18503 | 36639 ft | 510 kts | 141° |
| 2026-05-05 23:06 | 41.13007 | -5.15360 | 36316 ft | 512 kts | 142° |
| 2026-05-05 23:06 | 41.10365 | -5.12171 | 35464 ft | 512 kts | 142° |
| 2026-05-05 23:07 | 41.07717 | -5.08986 | 34871 ft | 514 kts | 142° |
| 2026-05-05 23:07 | 41.05091 | -5.05833 | 34667 ft | 514 kts | 142° |
| 2026-05-05 23:07 | 41.02450 | -5.02661 | 34158 ft | 512 kts | 142° |
| 2026-05-05 23:07 | 40.99800 | -4.99477 | 33596 ft | 511 kts | 143° |
| 2026-05-05 23:08 | 40.97197 | -4.96355 | 32959 ft | 512 kts | 143° |
| 2026-05-05 23:08 | 40.94561 | -4.93199 | 32267 ft | 514 kts | 143° |
| 2026-05-05 23:08 | 40.91902 | -4.90021 | 31417 ft | 517 kts | 143° |
| 2026-05-05 23:08 | 40.89249 | -4.86855 | 30561 ft | 519 kts | 143° |
| 2026-05-05 23:09 | 40.86547 | -4.83633 | 29744 ft | 521 kts | 143° |
| 2026-05-05 23:09 | 40.83870 | -4.80444 | 28953 ft | 522 kts | 143° |
| 2026-05-05 23:09 | 40.81182 | -4.77243 | 28199 ft | 520 kts | 143° |
| 2026-05-05 23:09 | 40.78525 | -4.74082 | 27588 ft | 514 kts | 143° |
| 2026-05-05 23:10 | 40.75888 | -4.70945 | 27045 ft | 507 kts | 143° |
| 2026-05-05 23:10 | 40.73285 | -4.67851 | 26518 ft | 500 kts | 142° |
| 2026-05-05 23:10 | 40.70721 | -4.64810 | 26004 ft | 495 kts | 142° |
| 2026-05-05 23:10 | 40.68176 | -4.61794 | 25460 ft | 491 kts | 142° |
| 2026-05-05 23:11 | 40.65652 | -4.58809 | 24902 ft | 487 kts | 142° |
| 2026-05-05 23:11 | 40.63148 | -4.55812 | 24347 ft | 485 kts | 141° |
| 2026-05-05 23:11 | 40.60786 | -4.52666 | 23814 ft | 483 kts | 137° |
| 2026-05-05 23:11 | 40.58529 | -4.49438 | 23283 ft | 479 kts | 136° |
| 2026-05-05 23:12 | 40.56286 | -4.46199 | 22746 ft | 476 kts | 136° |
| 2026-05-05 23:12 | 40.54071 | -4.42997 | 22215 ft | 472 kts | 136° |
| 2026-05-05 23:12 | 40.51875 | -4.39831 | 21690 ft | 469 kts | 136° |
| 2026-05-05 23:12 | 40.49706 | -4.36713 | 21166 ft | 465 kts | 136° |
| 2026-05-05 23:13 | 40.47527 | -4.33587 | 20641 ft | 461 kts | 137° |
| 2026-05-05 23:13 | 40.45349 | -4.30468 | 20127 ft | 458 kts | 137° |
| 2026-05-05 23:13 | 40.43232 | -4.27439 | 19628 ft | 454 kts | 137° |
| 2026-05-05 23:13 | 40.41099 | -4.24392 | 19120 ft | 451 kts | 137° |
| 2026-05-05 23:14 | 40.38988 | -4.21381 | 18614 ft | 447 kts | 137° |
| 2026-05-05 23:14 | 40.36885 | -4.18384 | 18109 ft | 444 kts | 136° |
| 2026-05-05 23:14 | 40.34948 | -4.15256 | 17580 ft | 446 kts | 127° |
| 2026-05-05 23:14 | 40.33489 | -4.11705 | 17089 ft | 446 kts | 115° |
| 2026-05-05 23:15 | 40.32449 | -4.07866 | 16616 ft | 443 kts | 110° |
| 2026-05-05 23:15 | 40.31517 | -4.03996 | 16150 ft | 438 kts | 109° |
| 2026-05-05 23:15 | 40.30625 | -4.00253 | 15977 ft | 435 kts | 109° |
| 2026-05-05 23:15 | 40.29705 | -3.96467 | 15958 ft | 435 kts | 109° |
| 2026-05-05 23:16 | 40.28815 | -3.92866 | 15941 ft | 432 kts | 109° |
| 2026-05-05 23:16 | 40.27890 | -3.89164 | 15731 ft | 424 kts | 109° |
| 2026-05-05 23:16 | 40.26975 | -3.85526 | 15390 ft | 418 kts | 109° |
| 2026-05-05 23:16 | 40.26066 | -3.81928 | 14782 ft | 420 kts | 109° |
| 2026-05-05 23:17 | 40.25143 | -3.78284 | 14186 ft | 419 kts | 109° |
| 2026-05-05 23:17 | 40.24230 | -3.74683 | 13702 ft | 415 kts | 110° |
| 2026-05-05 23:17 | 40.23330 | -3.71146 | 13210 ft | 411 kts | 109° |
| 2026-05-05 23:17 | 40.22430 | -3.67619 | 12735 ft | 407 kts | 109° |
| 2026-05-05 23:18 | 40.21676 | -3.64662 | 12329 ft | 403 kts | 109° |
| 2026-05-05 23:18 | 40.20797 | -3.61207 | 11844 ft | 398 kts | 109° |
| 2026-05-05 23:18 | 40.19925 | -3.57784 | 11367 ft | 394 kts | 109° |
| 2026-05-05 23:18 | 40.19059 | -3.54399 | 10896 ft | 389 kts | 109° |
| 2026-05-05 23:19 | 40.18216 | -3.51106 | 10436 ft | 385 kts | 109° |
| 2026-05-05 23:19 | 40.17397 | -3.47819 | 10070 ft | 378 kts | 105° |
| 2026-05-05 23:19 | 40.17216 | -3.44443 | 9684 ft | 370 kts | 80° |
| 2026-05-05 23:19 | 40.18118 | -3.41382 | 9266 ft | 360 kts | 53° |
| 2026-05-05 23:20 | 40.19896 | -3.39204 | 8872 ft | 349 kts | 26° |
| 2026-05-05 23:20 | 40.22166 | -3.38254 | 8497 ft | 338 kts | 5° |
| 2026-05-05 23:20 | 40.24460 | -3.37880 | 7993 ft | 331 kts | 7° |
| 2026-05-05 23:20 | 40.26680 | -3.37600 | 7402 ft | 316 kts | 357° |
| 2026-05-05 23:21 | 40.28842 | -3.37661 | 6754 ft | 308 kts | 357° |
| 2026-05-05 23:21 | 40.30947 | -3.37686 | 6129 ft | 298 kts | 355° |
| 2026-05-05 23:21 | 40.32906 | -3.38295 | 5576 ft | 286 kts | 330° |
| 2026-05-05 23:21 | 40.34377 | -3.39856 | 5179 ft | 260 kts | 313° |
| 2026-05-05 23:22 | 40.35573 | -3.41481 | 4842 ft | 238 kts | 317° |
| 2026-05-05 23:22 | 40.36775 | -3.42861 | 4542 ft | 223 kts | 322° |
| 2026-05-05 23:22 | 40.37947 | -3.44057 | 4283 ft | 205 kts | 323° |
| 2026-05-05 23:22 | 40.39046 | -3.45154 | 4007 ft | 190 kts | 323° |
| 2026-05-05 23:23 | 40.40041 | -3.46159 | 3763 ft | 174 kts | 323° |
| 2026-05-05 23:23 | 40.40980 | -3.47119 | 3556 ft | 166 kts | 323° |
| 2026-05-05 23:23 | 40.41874 | -3.48030 | 3343 ft | 163 kts | 323° |
| 2026-05-05 23:23 | 40.42775 | -3.48933 | 3116 ft | 162 kts | 324° |
| 2026-05-05 23:24 | 40.43666 | -3.49837 | 2875 ft | 161 kts | 323° |
| 2026-05-05 23:24 | 40.44543 | -3.50745 | 2678 ft | 160 kts | 322° |
| 2026-05-05 23:24 | 40.45416 | -3.51645 | 2469 ft | 160 kts | 323° |
| 2026-05-05 23:24 | 40.46296 | -3.52537 | 2251 ft | 160 kts | 323° |
| 2026-05-05 23:25 | 40.47174 | -3.53427 | 2044 ft | 159 kts | 323° |
| 2026-05-05 23:25 | 40.48026 | -3.54293 | 1970 ft | 142 kts | 321° |
| 2026-05-05 23:25 | 40.48675 | -3.54953 | 1969 ft | 92 kts | 322° |
| 2026-05-05 23:25 | 40.49083 | -3.55367 | 1969 ft | 64 kts | 322° |
| 2026-05-05 23:26 | 40.49392 | -3.55679 | 1969 ft | 42 kts | 322° |
| 2026-05-05 23:26 | 40.49533 | -3.55856 | 1968 ft | 18 kts | 295° |
| 2026-05-05 23:26 | 40.49552 | -3.56019 | 1968 ft | 18 kts | 270° |
| 2026-05-05 23:26 | 40.49552 | -3.56194 | 1968 ft | 19 kts | 269° |
| 2026-05-05 23:27 | 40.49552 | -3.56378 | 1968 ft | 17 kts | 270° |
| 2026-05-05 23:27 | 40.49559 | -3.56530 | 1968 ft | 17 kts | 276° |
| 2026-05-05 23:27 | 40.49561 | -3.56632 | 1968 ft | 1 kts | 269° |
| 2026-05-05 23:27 | 40.49561 | -3.56639 | 1968 ft | 0 kts | 269° |